<?xml version="1.0" encoding="UTF-8" standalone="no" ?>
<gpx xmlns="http://www.topografix.com/GPX/1/1" xmlns:xsi="http://www.w3.org/2001/XMLSchema-instance" xsi:schemaLocation="http://www.topografix.com/GPX/1/1 http://www.topografix.com/GPX/1/1/gpx.xsd" version="1.1" creator="VisuGPX - https://www.visugpx.com">
  <metadata>
    <name>Pranles volcan la Chirouse</name>
    <desc><![CDATA[File with points/tracks from Locus Map Pro/3.16.2]]></desc>
  </metadata>
  <trk>
    <name><![CDATA[F07000 Pranles volcan la Chirouse LT MJC]]></name>
    <trkseg>
      <trkpt lat="44.77536" lon="4.56372">
        <ele>652.72</ele>
        <time>2016-05-03T08:15:01Z</time>
      </trkpt>
      <trkpt lat="44.77524" lon="4.56376">
        <ele>650.05</ele>
        <time>2016-05-03T08:15:49Z</time>
      </trkpt>
      <trkpt lat="44.77539" lon="4.5636">
        <ele>651.7</ele>
        <time>2016-05-03T08:16:00Z</time>
      </trkpt>
      <trkpt lat="44.77551" lon="4.5635">
        <ele>653.79</ele>
        <time>2016-05-03T08:16:10Z</time>
      </trkpt>
      <trkpt lat="44.7756" lon="4.56335">
        <ele>654.36</ele>
        <time>2016-05-03T08:16:21Z</time>
      </trkpt>
      <trkpt lat="44.77568" lon="4.56329">
        <ele>655.77</ele>
        <time>2016-05-03T08:16:32Z</time>
      </trkpt>
      <trkpt lat="44.77576" lon="4.5632">
        <ele>656.92</ele>
        <time>2016-05-03T08:16:43Z</time>
      </trkpt>
      <trkpt lat="44.77579" lon="4.56315">
        <ele>657.38</ele>
        <time>2016-05-03T08:16:54Z</time>
      </trkpt>
      <trkpt lat="44.77578" lon="4.56301">
        <ele>655.12</ele>
        <time>2016-05-03T08:17:04Z</time>
      </trkpt>
      <trkpt lat="44.7758" lon="4.56288">
        <ele>653.97</ele>
        <time>2016-05-03T08:17:15Z</time>
      </trkpt>
      <trkpt lat="44.7759" lon="4.5628">
        <ele>655.63</ele>
        <time>2016-05-03T08:17:26Z</time>
      </trkpt>
      <trkpt lat="44.77595" lon="4.56271">
        <ele>656</ele>
        <time>2016-05-03T08:17:37Z</time>
      </trkpt>
      <trkpt lat="44.77603" lon="4.56262">
        <ele>656.81</ele>
        <time>2016-05-03T08:17:48Z</time>
      </trkpt>
      <trkpt lat="44.77607" lon="4.56248">
        <ele>656.08</ele>
        <time>2016-05-03T08:17:59Z</time>
      </trkpt>
      <trkpt lat="44.77611" lon="4.56246">
        <ele>657.09</ele>
        <time>2016-05-03T08:18:48Z</time>
      </trkpt>
      <trkpt lat="44.7764" lon="4.56242">
        <ele>664.74</ele>
        <time>2016-05-03T08:18:59Z</time>
      </trkpt>
      <trkpt lat="44.77649" lon="4.56234">
        <ele>665.73</ele>
        <time>2016-05-03T08:19:09Z</time>
      </trkpt>
      <trkpt lat="44.77655" lon="4.56226">
        <ele>665.99</ele>
        <time>2016-05-03T08:19:20Z</time>
      </trkpt>
      <trkpt lat="44.77663" lon="4.5622">
        <ele>666.93</ele>
        <time>2016-05-03T08:19:31Z</time>
      </trkpt>
      <trkpt lat="44.77671" lon="4.5622">
        <ele>668.82</ele>
        <time>2016-05-03T08:19:42Z</time>
      </trkpt>
      <trkpt lat="44.77677" lon="4.56213">
        <ele>669.01</ele>
        <time>2016-05-03T08:19:52Z</time>
      </trkpt>
      <trkpt lat="44.77689" lon="4.56219">
        <ele>672.9</ele>
        <time>2016-05-03T08:20:03Z</time>
      </trkpt>
      <trkpt lat="44.77699" lon="4.56217">
        <ele>674.8</ele>
        <time>2016-05-03T08:20:14Z</time>
      </trkpt>
      <trkpt lat="44.77711" lon="4.56224">
        <ele>678.39</ele>
        <time>2016-05-03T08:20:25Z</time>
      </trkpt>
      <trkpt lat="44.77707" lon="4.56207">
        <ele>675.12</ele>
        <time>2016-05-03T08:20:36Z</time>
      </trkpt>
      <trkpt lat="44.77719" lon="4.56193">
        <ele>676.34</ele>
        <time>2016-05-03T08:20:46Z</time>
      </trkpt>
      <trkpt lat="44.77724" lon="4.56183">
        <ele>676.6</ele>
        <time>2016-05-03T08:20:56Z</time>
      </trkpt>
      <trkpt lat="44.77738" lon="4.56176">
        <ele>679.71</ele>
        <time>2016-05-03T08:21:07Z</time>
      </trkpt>
      <trkpt lat="44.77747" lon="4.56177">
        <ele>682.1</ele>
        <time>2016-05-03T08:21:19Z</time>
      </trkpt>
      <trkpt lat="44.77755" lon="4.56169">
        <ele>683.53</ele>
        <time>2016-05-03T08:21:30Z</time>
      </trkpt>
      <trkpt lat="44.77761" lon="4.56161">
        <ele>684.4</ele>
        <time>2016-05-03T08:21:40Z</time>
      </trkpt>
      <trkpt lat="44.77773" lon="4.56154">
        <ele>686.97</ele>
        <time>2016-05-03T08:21:51Z</time>
      </trkpt>
      <trkpt lat="44.77781" lon="4.56151">
        <ele>688.65</ele>
        <time>2016-05-03T08:22:03Z</time>
      </trkpt>
      <trkpt lat="44.77788" lon="4.5615">
        <ele>690.63</ele>
        <time>2016-05-03T08:22:40Z</time>
      </trkpt>
      <trkpt lat="44.77798" lon="4.56146">
        <ele>692.7</ele>
        <time>2016-05-03T08:22:50Z</time>
      </trkpt>
      <trkpt lat="44.77808" lon="4.56148">
        <ele>695.62</ele>
        <time>2016-05-03T08:23:01Z</time>
      </trkpt>
      <trkpt lat="44.77819" lon="4.56148">
        <ele>698.6</ele>
        <time>2016-05-03T08:23:11Z</time>
      </trkpt>
      <trkpt lat="44.77828" lon="4.56147">
        <ele>700.88</ele>
        <time>2016-05-03T08:23:21Z</time>
      </trkpt>
      <trkpt lat="44.7783" lon="4.56136">
        <ele>700.1</ele>
        <time>2016-05-03T08:23:32Z</time>
      </trkpt>
      <trkpt lat="44.77834" lon="4.56127">
        <ele>700.37</ele>
        <time>2016-05-03T08:23:43Z</time>
      </trkpt>
      <trkpt lat="44.77846" lon="4.56116">
        <ele>703.12</ele>
        <time>2016-05-03T08:23:54Z</time>
      </trkpt>
      <trkpt lat="44.77853" lon="4.56108">
        <ele>704.94</ele>
        <time>2016-05-03T08:24:06Z</time>
      </trkpt>
      <trkpt lat="44.77855" lon="4.56098">
        <ele>705.03</ele>
        <time>2016-05-03T08:24:26Z</time>
      </trkpt>
      <trkpt lat="44.77861" lon="4.5608">
        <ele>706.48</ele>
        <time>2016-05-03T08:24:36Z</time>
      </trkpt>
      <trkpt lat="44.77869" lon="4.56063">
        <ele>708.97</ele>
        <time>2016-05-03T08:24:46Z</time>
      </trkpt>
      <trkpt lat="44.7787" lon="4.56046">
        <ele>709.31</ele>
        <time>2016-05-03T08:24:56Z</time>
      </trkpt>
      <trkpt lat="44.77873" lon="4.56035">
        <ele>710.11</ele>
        <time>2016-05-03T08:25:06Z</time>
      </trkpt>
      <trkpt lat="44.77873" lon="4.56021">
        <ele>710.25</ele>
        <time>2016-05-03T08:25:17Z</time>
      </trkpt>
      <trkpt lat="44.77882" lon="4.56008">
        <ele>713.37</ele>
        <time>2016-05-03T08:25:27Z</time>
      </trkpt>
      <trkpt lat="44.77887" lon="4.56">
        <ele>714.97</ele>
        <time>2016-05-03T08:25:37Z</time>
      </trkpt>
      <trkpt lat="44.77887" lon="4.55987">
        <ele>714.77</ele>
        <time>2016-05-03T08:25:47Z</time>
      </trkpt>
      <trkpt lat="44.77885" lon="4.55969">
        <ele>713.62</ele>
        <time>2016-05-03T08:25:58Z</time>
      </trkpt>
      <trkpt lat="44.77883" lon="4.55947">
        <ele>712.63</ele>
        <time>2016-05-03T08:26:08Z</time>
      </trkpt>
      <trkpt lat="44.77882" lon="4.55929">
        <ele>712</ele>
        <time>2016-05-03T08:26:19Z</time>
      </trkpt>
      <trkpt lat="44.77886" lon="4.55915">
        <ele>713.28</ele>
        <time>2016-05-03T08:26:29Z</time>
      </trkpt>
      <trkpt lat="44.77882" lon="4.55898">
        <ele>711.61</ele>
        <time>2016-05-03T08:26:40Z</time>
      </trkpt>
      <trkpt lat="44.77883" lon="4.55882">
        <ele>712.05</ele>
        <time>2016-05-03T08:26:51Z</time>
      </trkpt>
      <trkpt lat="44.77887" lon="4.55873">
        <ele>713.4</ele>
        <time>2016-05-03T08:27:01Z</time>
      </trkpt>
      <trkpt lat="44.77889" lon="4.55858">
        <ele>713.93</ele>
        <time>2016-05-03T08:27:12Z</time>
      </trkpt>
      <trkpt lat="44.77893" lon="4.5584">
        <ele>715.77</ele>
        <time>2016-05-03T08:27:23Z</time>
      </trkpt>
      <trkpt lat="44.77899" lon="4.55827">
        <ele>717.68</ele>
        <time>2016-05-03T08:27:33Z</time>
      </trkpt>
      <trkpt lat="44.77908" lon="4.55809">
        <ele>720.2</ele>
        <time>2016-05-03T08:27:44Z</time>
      </trkpt>
      <trkpt lat="44.77912" lon="4.55795">
        <ele>721.24</ele>
        <time>2016-05-03T08:27:55Z</time>
      </trkpt>
      <trkpt lat="44.7791" lon="4.55782">
        <ele>721.42</ele>
        <time>2016-05-03T08:28:06Z</time>
      </trkpt>
      <trkpt lat="44.77909" lon="4.55772">
        <ele>721.59</ele>
        <time>2016-05-03T08:28:16Z</time>
      </trkpt>
      <trkpt lat="44.77908" lon="4.5576">
        <ele>721.78</ele>
        <time>2016-05-03T08:28:27Z</time>
      </trkpt>
      <trkpt lat="44.77906" lon="4.5575">
        <ele>721.91</ele>
        <time>2016-05-03T08:28:38Z</time>
      </trkpt>
      <trkpt lat="44.77903" lon="4.55739">
        <ele>722.01</ele>
        <time>2016-05-03T08:28:48Z</time>
      </trkpt>
      <trkpt lat="44.77904" lon="4.55725">
        <ele>722.76</ele>
        <time>2016-05-03T08:29:00Z</time>
      </trkpt>
      <trkpt lat="44.77905" lon="4.55718">
        <ele>723.28</ele>
        <time>2016-05-03T08:29:55Z</time>
      </trkpt>
      <trkpt lat="44.77902" lon="4.55698">
        <ele>724.07</ele>
        <time>2016-05-03T08:30:05Z</time>
      </trkpt>
      <trkpt lat="44.77899" lon="4.55684">
        <ele>724.68</ele>
        <time>2016-05-03T08:30:16Z</time>
      </trkpt>
      <trkpt lat="44.77903" lon="4.55668">
        <ele>725.8</ele>
        <time>2016-05-03T08:30:27Z</time>
      </trkpt>
      <trkpt lat="44.77907" lon="4.55657">
        <ele>726.45</ele>
        <time>2016-05-03T08:30:37Z</time>
      </trkpt>
      <trkpt lat="44.7791" lon="4.55645">
        <ele>727.02</ele>
        <time>2016-05-03T08:30:47Z</time>
      </trkpt>
      <trkpt lat="44.77912" lon="4.55636">
        <ele>727.38</ele>
        <time>2016-05-03T08:31:09Z</time>
      </trkpt>
      <trkpt lat="44.77922" lon="4.55625">
        <ele>727.26</ele>
        <time>2016-05-03T08:31:20Z</time>
      </trkpt>
      <trkpt lat="44.77926" lon="4.55618">
        <ele>727.13</ele>
        <time>2016-05-03T08:31:38Z</time>
      </trkpt>
      <trkpt lat="44.7794" lon="4.55604">
        <ele>725.59</ele>
        <time>2016-05-03T08:31:48Z</time>
      </trkpt>
      <trkpt lat="44.77942" lon="4.55597">
        <ele>725.36</ele>
        <time>2016-05-03T08:32:01Z</time>
      </trkpt>
      <trkpt lat="44.77949" lon="4.55584">
        <ele>724.15</ele>
        <time>2016-05-03T08:32:11Z</time>
      </trkpt>
      <trkpt lat="44.77951" lon="4.55567">
        <ele>723.72</ele>
        <time>2016-05-03T08:32:21Z</time>
      </trkpt>
      <trkpt lat="44.77952" lon="4.5555">
        <ele>723.4</ele>
        <time>2016-05-03T08:32:32Z</time>
      </trkpt>
      <trkpt lat="44.77952" lon="4.55534">
        <ele>723.15</ele>
        <time>2016-05-03T08:32:42Z</time>
      </trkpt>
      <trkpt lat="44.77952" lon="4.5552">
        <ele>722.83</ele>
        <time>2016-05-03T08:32:52Z</time>
      </trkpt>
      <trkpt lat="44.77953" lon="4.55505">
        <ele>722.02</ele>
        <time>2016-05-03T08:33:02Z</time>
      </trkpt>
      <trkpt lat="44.77953" lon="4.55491">
        <ele>721.56</ele>
        <time>2016-05-03T08:33:13Z</time>
      </trkpt>
      <trkpt lat="44.77954" lon="4.55479">
        <ele>720.71</ele>
        <time>2016-05-03T08:33:24Z</time>
      </trkpt>
      <trkpt lat="44.77953" lon="4.55463">
        <ele>719.94</ele>
        <time>2016-05-03T08:33:35Z</time>
      </trkpt>
      <trkpt lat="44.77955" lon="4.55448">
        <ele>718.27</ele>
        <time>2016-05-03T08:33:45Z</time>
      </trkpt>
      <trkpt lat="44.77957" lon="4.5544">
        <ele>717.27</ele>
        <time>2016-05-03T08:34:01Z</time>
      </trkpt>
      <trkpt lat="44.7796" lon="4.55417">
        <ele>715.19</ele>
        <time>2016-05-03T08:34:12Z</time>
      </trkpt>
      <trkpt lat="44.77965" lon="4.55398">
        <ele>713.06</ele>
        <time>2016-05-03T08:34:22Z</time>
      </trkpt>
      <trkpt lat="44.77971" lon="4.55379">
        <ele>710.84</ele>
        <time>2016-05-03T08:34:33Z</time>
      </trkpt>
      <trkpt lat="44.77973" lon="4.55363">
        <ele>709.68</ele>
        <time>2016-05-03T08:34:43Z</time>
      </trkpt>
      <trkpt lat="44.77976" lon="4.55346">
        <ele>708.42</ele>
        <time>2016-05-03T08:34:54Z</time>
      </trkpt>
      <trkpt lat="44.77977" lon="4.55333">
        <ele>707.59</ele>
        <time>2016-05-03T08:35:04Z</time>
      </trkpt>
      <trkpt lat="44.7798" lon="4.55315">
        <ele>706.74</ele>
        <time>2016-05-03T08:35:14Z</time>
      </trkpt>
      <trkpt lat="44.7798" lon="4.55298">
        <ele>706.54</ele>
        <time>2016-05-03T08:35:25Z</time>
      </trkpt>
      <trkpt lat="44.77981" lon="4.55286">
        <ele>706.07</ele>
        <time>2016-05-03T08:35:36Z</time>
      </trkpt>
      <trkpt lat="44.77982" lon="4.55279">
        <ele>705.77</ele>
        <time>2016-05-03T08:36:01Z</time>
      </trkpt>
      <trkpt lat="44.77983" lon="4.55262">
        <ele>704.94</ele>
        <time>2016-05-03T08:36:11Z</time>
      </trkpt>
      <trkpt lat="44.77983" lon="4.55252">
        <ele>704.43</ele>
        <time>2016-05-03T08:36:22Z</time>
      </trkpt>
      <trkpt lat="44.77983" lon="4.55246">
        <ele>703.95</ele>
        <time>2016-05-03T08:36:42Z</time>
      </trkpt>
      <trkpt lat="44.77982" lon="4.55236">
        <ele>703.17</ele>
        <time>2016-05-03T08:37:06Z</time>
      </trkpt>
      <trkpt lat="44.77987" lon="4.55221">
        <ele>700.28</ele>
        <time>2016-05-03T08:37:17Z</time>
      </trkpt>
      <trkpt lat="44.7799" lon="4.55205">
        <ele>697.48</ele>
        <time>2016-05-03T08:37:28Z</time>
      </trkpt>
      <trkpt lat="44.77992" lon="4.5519">
        <ele>694.94</ele>
        <time>2016-05-03T08:37:38Z</time>
      </trkpt>
      <trkpt lat="44.77991" lon="4.5517">
        <ele>692.16</ele>
        <time>2016-05-03T08:38:00Z</time>
      </trkpt>
      <trkpt lat="44.77995" lon="4.55146">
        <ele>688.36</ele>
        <time>2016-05-03T08:38:16Z</time>
      </trkpt>
      <trkpt lat="44.77998" lon="4.55124">
        <ele>685.31</ele>
        <time>2016-05-03T08:38:36Z</time>
      </trkpt>
      <trkpt lat="44.77997" lon="4.55109">
        <ele>683.78</ele>
        <time>2016-05-03T08:38:47Z</time>
      </trkpt>
      <trkpt lat="44.77984" lon="4.5509">
        <ele>682.99</ele>
        <time>2016-05-03T08:38:57Z</time>
      </trkpt>
      <trkpt lat="44.77981" lon="4.55086">
        <ele>682.39</ele>
        <time>2016-05-03T08:40:08Z</time>
      </trkpt>
      <trkpt lat="44.77973" lon="4.55079">
        <ele>681.62</ele>
        <time>2016-05-03T08:40:18Z</time>
      </trkpt>
      <trkpt lat="44.77968" lon="4.55077">
        <ele>681.62</ele>
        <time>2016-05-03T08:40:30Z</time>
      </trkpt>
      <trkpt lat="44.77961" lon="4.5507">
        <ele>679.92</ele>
        <time>2016-05-03T08:40:40Z</time>
      </trkpt>
      <trkpt lat="44.77949" lon="4.55067">
        <ele>680.43</ele>
        <time>2016-05-03T08:40:50Z</time>
      </trkpt>
      <trkpt lat="44.77942" lon="4.55062">
        <ele>679.29</ele>
        <time>2016-05-03T08:41:00Z</time>
      </trkpt>
      <trkpt lat="44.77931" lon="4.55056">
        <ele>679.13</ele>
        <time>2016-05-03T08:41:11Z</time>
      </trkpt>
      <trkpt lat="44.77921" lon="4.55052">
        <ele>679.59</ele>
        <time>2016-05-03T08:41:21Z</time>
      </trkpt>
      <trkpt lat="44.77911" lon="4.55049">
        <ele>681.07</ele>
        <time>2016-05-03T08:41:31Z</time>
      </trkpt>
      <trkpt lat="44.77898" lon="4.55046">
        <ele>683.63</ele>
        <time>2016-05-03T08:41:42Z</time>
      </trkpt>
      <trkpt lat="44.77889" lon="4.55037">
        <ele>683.97</ele>
        <time>2016-05-03T08:41:52Z</time>
      </trkpt>
      <trkpt lat="44.77883" lon="4.55027">
        <ele>683.84</ele>
        <time>2016-05-03T08:42:02Z</time>
      </trkpt>
      <trkpt lat="44.77877" lon="4.55021">
        <ele>684.68</ele>
        <time>2016-05-03T08:42:12Z</time>
      </trkpt>
      <trkpt lat="44.77871" lon="4.55004">
        <ele>683.83</ele>
        <time>2016-05-03T08:42:23Z</time>
      </trkpt>
      <trkpt lat="44.77866" lon="4.5499">
        <ele>683.34</ele>
        <time>2016-05-03T08:42:34Z</time>
      </trkpt>
      <trkpt lat="44.77864" lon="4.54976">
        <ele>681.57</ele>
        <time>2016-05-03T08:42:45Z</time>
      </trkpt>
      <trkpt lat="44.77868" lon="4.54962">
        <ele>677.17</ele>
        <time>2016-05-03T08:42:55Z</time>
      </trkpt>
      <trkpt lat="44.77869" lon="4.54945">
        <ele>673.19</ele>
        <time>2016-05-03T08:43:06Z</time>
      </trkpt>
      <trkpt lat="44.77865" lon="4.54934">
        <ele>673.56</ele>
        <time>2016-05-03T08:43:16Z</time>
      </trkpt>
      <trkpt lat="44.77861" lon="4.54924">
        <ele>673.6</ele>
        <time>2016-05-03T08:43:27Z</time>
      </trkpt>
      <trkpt lat="44.77866" lon="4.5491">
        <ele>667.77</ele>
        <time>2016-05-03T08:43:37Z</time>
      </trkpt>
      <trkpt lat="44.77858" lon="4.54888">
        <ele>665.85</ele>
        <time>2016-05-03T08:43:47Z</time>
      </trkpt>
      <trkpt lat="44.7785" lon="4.54878">
        <ele>666.47</ele>
        <time>2016-05-03T08:43:58Z</time>
      </trkpt>
      <trkpt lat="44.77843" lon="4.54875">
        <ele>668.3</ele>
        <time>2016-05-03T08:44:08Z</time>
      </trkpt>
      <trkpt lat="44.77832" lon="4.54868">
        <ele>669.9</ele>
        <time>2016-05-03T08:44:18Z</time>
      </trkpt>
      <trkpt lat="44.77817" lon="4.54856">
        <ele>669.84</ele>
        <time>2016-05-03T08:44:29Z</time>
      </trkpt>
      <trkpt lat="44.77823" lon="4.54858">
        <ele>668.96</ele>
        <time>2016-05-03T08:44:41Z</time>
      </trkpt>
      <trkpt lat="44.77831" lon="4.5486">
        <ele>667.36</ele>
        <time>2016-05-03T08:44:52Z</time>
      </trkpt>
      <trkpt lat="44.7784" lon="4.54856">
        <ele>662.88</ele>
        <time>2016-05-03T08:45:03Z</time>
      </trkpt>
      <trkpt lat="44.77846" lon="4.54861">
        <ele>662.63</ele>
        <time>2016-05-03T08:45:14Z</time>
      </trkpt>
      <trkpt lat="44.77855" lon="4.54869">
        <ele>661.36</ele>
        <time>2016-05-03T08:45:28Z</time>
      </trkpt>
      <trkpt lat="44.77877" lon="4.54875">
        <ele>653.47</ele>
        <time>2016-05-03T08:45:38Z</time>
      </trkpt>
      <trkpt lat="44.77869" lon="4.54889">
        <ele>660.83</ele>
        <time>2016-05-03T08:45:48Z</time>
      </trkpt>
      <trkpt lat="44.77881" lon="4.54902">
        <ele>657.45</ele>
        <time>2016-05-03T08:45:59Z</time>
      </trkpt>
      <trkpt lat="44.77884" lon="4.54909">
        <ele>657.27</ele>
        <time>2016-05-03T08:46:09Z</time>
      </trkpt>
      <trkpt lat="44.77898" lon="4.54928">
        <ele>653.21</ele>
        <time>2016-05-03T08:46:20Z</time>
      </trkpt>
      <trkpt lat="44.779" lon="4.54942">
        <ele>655.24</ele>
        <time>2016-05-03T08:46:30Z</time>
      </trkpt>
      <trkpt lat="44.77917" lon="4.54951">
        <ele>649.53</ele>
        <time>2016-05-03T08:46:41Z</time>
      </trkpt>
      <trkpt lat="44.77913" lon="4.5496">
        <ele>653.58</ele>
        <time>2016-05-03T08:46:52Z</time>
      </trkpt>
      <trkpt lat="44.77915" lon="4.54966">
        <ele>654.62</ele>
        <time>2016-05-03T08:47:15Z</time>
      </trkpt>
      <trkpt lat="44.77931" lon="4.54971">
        <ele>650.11</ele>
        <time>2016-05-03T08:47:29Z</time>
      </trkpt>
      <trkpt lat="44.7794" lon="4.54973">
        <ele>647.76</ele>
        <time>2016-05-03T08:47:40Z</time>
      </trkpt>
      <trkpt lat="44.7796" lon="4.5498">
        <ele>644.38</ele>
        <time>2016-05-03T08:47:50Z</time>
      </trkpt>
      <trkpt lat="44.77974" lon="4.54983">
        <ele>642.35</ele>
        <time>2016-05-03T08:48:01Z</time>
      </trkpt>
      <trkpt lat="44.77983" lon="4.54982">
        <ele>640.39</ele>
        <time>2016-05-03T08:48:11Z</time>
      </trkpt>
      <trkpt lat="44.77993" lon="4.54983">
        <ele>639.04</ele>
        <time>2016-05-03T08:48:22Z</time>
      </trkpt>
      <trkpt lat="44.78004" lon="4.54982">
        <ele>637.2</ele>
        <time>2016-05-03T08:48:33Z</time>
      </trkpt>
      <trkpt lat="44.78008" lon="4.54986">
        <ele>638.87</ele>
        <time>2016-05-03T08:48:45Z</time>
      </trkpt>
      <trkpt lat="44.78022" lon="4.54992">
        <ele>641.58</ele>
        <time>2016-05-03T08:48:55Z</time>
      </trkpt>
      <trkpt lat="44.78032" lon="4.54993">
        <ele>642.38</ele>
        <time>2016-05-03T08:49:05Z</time>
      </trkpt>
      <trkpt lat="44.78041" lon="4.54982">
        <ele>638.7</ele>
        <time>2016-05-03T08:49:18Z</time>
      </trkpt>
      <trkpt lat="44.78051" lon="4.54978">
        <ele>638.07</ele>
        <time>2016-05-03T08:49:29Z</time>
      </trkpt>
      <trkpt lat="44.78057" lon="4.54967">
        <ele>634.2</ele>
        <time>2016-05-03T08:49:40Z</time>
      </trkpt>
      <trkpt lat="44.78056" lon="4.54955">
        <ele>629.38</ele>
        <time>2016-05-03T08:49:53Z</time>
      </trkpt>
      <trkpt lat="44.78066" lon="4.54947">
        <ele>627.23</ele>
        <time>2016-05-03T08:50:03Z</time>
      </trkpt>
      <trkpt lat="44.78081" lon="4.5494">
        <ele>626.12</ele>
        <time>2016-05-03T08:50:14Z</time>
      </trkpt>
      <trkpt lat="44.78088" lon="4.54933">
        <ele>623.48</ele>
        <time>2016-05-03T08:50:25Z</time>
      </trkpt>
      <trkpt lat="44.78095" lon="4.54921">
        <ele>619.87</ele>
        <time>2016-05-03T08:50:36Z</time>
      </trkpt>
      <trkpt lat="44.78099" lon="4.54906">
        <ele>615.44</ele>
        <time>2016-05-03T08:50:47Z</time>
      </trkpt>
      <trkpt lat="44.78104" lon="4.54903">
        <ele>614.85</ele>
        <time>2016-05-03T08:51:43Z</time>
      </trkpt>
      <trkpt lat="44.78109" lon="4.549">
        <ele>614.38</ele>
        <time>2016-05-03T08:54:16Z</time>
      </trkpt>
      <trkpt lat="44.78122" lon="4.54886">
        <ele>611.53</ele>
        <time>2016-05-03T08:54:26Z</time>
      </trkpt>
      <trkpt lat="44.78132" lon="4.54895">
        <ele>614.2</ele>
        <time>2016-05-03T08:54:37Z</time>
      </trkpt>
      <trkpt lat="44.78141" lon="4.54889">
        <ele>613.14</ele>
        <time>2016-05-03T08:54:48Z</time>
      </trkpt>
      <trkpt lat="44.78158" lon="4.54909">
        <ele>616.01</ele>
        <time>2016-05-03T08:54:59Z</time>
      </trkpt>
      <trkpt lat="44.78135" lon="4.54878">
        <ele>610.32</ele>
        <time>2016-05-03T08:55:10Z</time>
      </trkpt>
      <trkpt lat="44.78143" lon="4.54875">
        <ele>610.01</ele>
        <time>2016-05-03T08:55:24Z</time>
      </trkpt>
      <trkpt lat="44.7814" lon="4.54867">
        <ele>607.93</ele>
        <time>2016-05-03T08:55:38Z</time>
      </trkpt>
      <trkpt lat="44.78145" lon="4.54872">
        <ele>609.56</ele>
        <time>2016-05-03T08:59:09Z</time>
      </trkpt>
      <trkpt lat="44.7815" lon="4.54872">
        <ele>609.62</ele>
        <time>2016-05-03T09:03:19Z</time>
      </trkpt>
      <trkpt lat="44.78158" lon="4.54883">
        <ele>611.63</ele>
        <time>2016-05-03T09:03:29Z</time>
      </trkpt>
      <trkpt lat="44.78172" lon="4.54885">
        <ele>610.96</ele>
        <time>2016-05-03T09:04:01Z</time>
      </trkpt>
      <trkpt lat="44.78195" lon="4.54894">
        <ele>608.1</ele>
        <time>2016-05-03T09:04:27Z</time>
      </trkpt>
      <trkpt lat="44.78209" lon="4.5489">
        <ele>603.78</ele>
        <time>2016-05-03T09:04:38Z</time>
      </trkpt>
      <trkpt lat="44.78228" lon="4.54892">
        <ele>599.04</ele>
        <time>2016-05-03T09:04:48Z</time>
      </trkpt>
      <trkpt lat="44.78242" lon="4.5489">
        <ele>595.1</ele>
        <time>2016-05-03T09:04:59Z</time>
      </trkpt>
      <trkpt lat="44.78267" lon="4.5489">
        <ele>589.62</ele>
        <time>2016-05-03T09:05:10Z</time>
      </trkpt>
      <trkpt lat="44.78272" lon="4.54884">
        <ele>588</ele>
        <time>2016-05-03T09:06:08Z</time>
      </trkpt>
      <trkpt lat="44.78298" lon="4.54862">
        <ele>581.82</ele>
        <time>2016-05-03T09:06:19Z</time>
      </trkpt>
      <trkpt lat="44.78307" lon="4.54853">
        <ele>579.93</ele>
        <time>2016-05-03T09:06:30Z</time>
      </trkpt>
      <trkpt lat="44.78316" lon="4.54846">
        <ele>578.53</ele>
        <time>2016-05-03T09:06:42Z</time>
      </trkpt>
      <trkpt lat="44.7832" lon="4.54853">
        <ele>578.89</ele>
        <time>2016-05-03T09:06:53Z</time>
      </trkpt>
      <trkpt lat="44.78331" lon="4.54831">
        <ele>575.77</ele>
        <time>2016-05-03T09:07:04Z</time>
      </trkpt>
      <trkpt lat="44.78349" lon="4.54826">
        <ele>574.22</ele>
        <time>2016-05-03T09:07:15Z</time>
      </trkpt>
      <trkpt lat="44.78357" lon="4.54815">
        <ele>572.53</ele>
        <time>2016-05-03T09:07:26Z</time>
      </trkpt>
      <trkpt lat="44.78358" lon="4.54806">
        <ele>571.01</ele>
        <time>2016-05-03T09:07:37Z</time>
      </trkpt>
      <trkpt lat="44.7836" lon="4.54799">
        <ele>569.75</ele>
        <time>2016-05-03T09:07:52Z</time>
      </trkpt>
      <trkpt lat="44.78372" lon="4.54795">
        <ele>570.34</ele>
        <time>2016-05-03T09:08:03Z</time>
      </trkpt>
      <trkpt lat="44.7838" lon="4.54787">
        <ele>570.37</ele>
        <time>2016-05-03T09:08:14Z</time>
      </trkpt>
      <trkpt lat="44.78393" lon="4.54781">
        <ele>572.36</ele>
        <time>2016-05-03T09:08:25Z</time>
      </trkpt>
      <trkpt lat="44.78399" lon="4.54763">
        <ele>572.48</ele>
        <time>2016-05-03T09:08:35Z</time>
      </trkpt>
      <trkpt lat="44.78408" lon="4.54759">
        <ele>574.41</ele>
        <time>2016-05-03T09:08:46Z</time>
      </trkpt>
      <trkpt lat="44.78411" lon="4.54742">
        <ele>574.5</ele>
        <time>2016-05-03T09:08:56Z</time>
      </trkpt>
      <trkpt lat="44.78407" lon="4.54727">
        <ele>572.33</ele>
        <time>2016-05-03T09:09:06Z</time>
      </trkpt>
      <trkpt lat="44.78405" lon="4.54717">
        <ele>570.96</ele>
        <time>2016-05-03T09:10:06Z</time>
      </trkpt>
      <trkpt lat="44.78405" lon="4.54687">
        <ele>567.23</ele>
        <time>2016-05-03T09:10:17Z</time>
      </trkpt>
      <trkpt lat="44.78405" lon="4.54664">
        <ele>564.27</ele>
        <time>2016-05-03T09:10:27Z</time>
      </trkpt>
      <trkpt lat="44.78401" lon="4.5464">
        <ele>559.83</ele>
        <time>2016-05-03T09:10:38Z</time>
      </trkpt>
      <trkpt lat="44.78404" lon="4.54627">
        <ele>559.58</ele>
        <time>2016-05-03T09:10:48Z</time>
      </trkpt>
      <trkpt lat="44.78411" lon="4.54608">
        <ele>559.81</ele>
        <time>2016-05-03T09:10:59Z</time>
      </trkpt>
      <trkpt lat="44.7842" lon="4.54593">
        <ele>560.11</ele>
        <time>2016-05-03T09:11:10Z</time>
      </trkpt>
      <trkpt lat="44.78417" lon="4.54578">
        <ele>555.87</ele>
        <time>2016-05-03T09:11:21Z</time>
      </trkpt>
      <trkpt lat="44.7842" lon="4.54559">
        <ele>551.35</ele>
        <time>2016-05-03T09:11:32Z</time>
      </trkpt>
      <trkpt lat="44.7843" lon="4.5455">
        <ele>551.12</ele>
        <time>2016-05-03T09:11:43Z</time>
      </trkpt>
      <trkpt lat="44.78441" lon="4.54554">
        <ele>554.76</ele>
        <time>2016-05-03T09:11:53Z</time>
      </trkpt>
      <trkpt lat="44.78452" lon="4.54548">
        <ele>554.41</ele>
        <time>2016-05-03T09:12:04Z</time>
      </trkpt>
      <trkpt lat="44.78461" lon="4.54542">
        <ele>553.75</ele>
        <time>2016-05-03T09:12:14Z</time>
      </trkpt>
      <trkpt lat="44.78464" lon="4.54534">
        <ele>551.11</ele>
        <time>2016-05-03T09:12:24Z</time>
      </trkpt>
      <trkpt lat="44.78479" lon="4.54528">
        <ele>550.66</ele>
        <time>2016-05-03T09:12:34Z</time>
      </trkpt>
      <trkpt lat="44.78482" lon="4.54523">
        <ele>549.31</ele>
        <time>2016-05-03T09:12:44Z</time>
      </trkpt>
      <trkpt lat="44.78497" lon="4.54522">
        <ele>550.46</ele>
        <time>2016-05-03T09:12:55Z</time>
      </trkpt>
      <trkpt lat="44.78508" lon="4.5452">
        <ele>550.94</ele>
        <time>2016-05-03T09:13:05Z</time>
      </trkpt>
      <trkpt lat="44.78516" lon="4.54511">
        <ele>549.13</ele>
        <time>2016-05-03T09:13:15Z</time>
      </trkpt>
      <trkpt lat="44.78524" lon="4.54505">
        <ele>548.55</ele>
        <time>2016-05-03T09:13:25Z</time>
      </trkpt>
      <trkpt lat="44.78533" lon="4.54504">
        <ele>549.72</ele>
        <time>2016-05-03T09:13:36Z</time>
      </trkpt>
      <trkpt lat="44.78544" lon="4.54487">
        <ele>547.77</ele>
        <time>2016-05-03T09:13:46Z</time>
      </trkpt>
      <trkpt lat="44.78553" lon="4.5448">
        <ele>547.4</ele>
        <time>2016-05-03T09:13:57Z</time>
      </trkpt>
      <trkpt lat="44.7856" lon="4.54467">
        <ele>546.12</ele>
        <time>2016-05-03T09:14:07Z</time>
      </trkpt>
      <trkpt lat="44.78565" lon="4.5446">
        <ele>545.45</ele>
        <time>2016-05-03T09:14:17Z</time>
      </trkpt>
      <trkpt lat="44.78573" lon="4.54459">
        <ele>545.83</ele>
        <time>2016-05-03T09:14:28Z</time>
      </trkpt>
      <trkpt lat="44.7858" lon="4.54453">
        <ele>545.22</ele>
        <time>2016-05-03T09:14:38Z</time>
      </trkpt>
      <trkpt lat="44.78592" lon="4.54443">
        <ele>543.76</ele>
        <time>2016-05-03T09:14:49Z</time>
      </trkpt>
      <trkpt lat="44.78599" lon="4.54428">
        <ele>541.64</ele>
        <time>2016-05-03T09:14:59Z</time>
      </trkpt>
      <trkpt lat="44.78593" lon="4.54413">
        <ele>539.64</ele>
        <time>2016-05-03T09:15:09Z</time>
      </trkpt>
      <trkpt lat="44.78596" lon="4.54402">
        <ele>537.99</ele>
        <time>2016-05-03T09:15:57Z</time>
      </trkpt>
      <trkpt lat="44.78604" lon="4.54389">
        <ele>535.9</ele>
        <time>2016-05-03T09:16:07Z</time>
      </trkpt>
      <trkpt lat="44.78612" lon="4.54373">
        <ele>532.88</ele>
        <time>2016-05-03T09:16:21Z</time>
      </trkpt>
      <trkpt lat="44.7862" lon="4.54368">
        <ele>531.3</ele>
        <time>2016-05-03T09:17:10Z</time>
      </trkpt>
      <trkpt lat="44.78621" lon="4.5434">
        <ele>526.66</ele>
        <time>2016-05-03T09:17:20Z</time>
      </trkpt>
      <trkpt lat="44.78619" lon="4.54327">
        <ele>525.11</ele>
        <time>2016-05-03T09:17:30Z</time>
      </trkpt>
      <trkpt lat="44.78631" lon="4.54318">
        <ele>522.55</ele>
        <time>2016-05-03T09:17:41Z</time>
      </trkpt>
      <trkpt lat="44.78633" lon="4.54309">
        <ele>521.3</ele>
        <time>2016-05-03T09:17:51Z</time>
      </trkpt>
      <trkpt lat="44.78628" lon="4.54304">
        <ele>521.4</ele>
        <time>2016-05-03T09:18:04Z</time>
      </trkpt>
      <trkpt lat="44.78629" lon="4.5429">
        <ele>519.67</ele>
        <time>2016-05-03T09:18:14Z</time>
      </trkpt>
      <trkpt lat="44.78628" lon="4.54281">
        <ele>519.04</ele>
        <time>2016-05-03T09:18:40Z</time>
      </trkpt>
      <trkpt lat="44.78623" lon="4.54266">
        <ele>518.13</ele>
        <time>2016-05-03T09:18:51Z</time>
      </trkpt>
      <trkpt lat="44.78627" lon="4.54246">
        <ele>515.95</ele>
        <time>2016-05-03T09:20:12Z</time>
      </trkpt>
      <trkpt lat="44.78625" lon="4.5424">
        <ele>515.72</ele>
        <time>2016-05-03T09:21:06Z</time>
      </trkpt>
      <trkpt lat="44.78627" lon="4.5423">
        <ele>514.95</ele>
        <time>2016-05-03T09:22:02Z</time>
      </trkpt>
      <trkpt lat="44.78614" lon="4.54202">
        <ele>514.77</ele>
        <time>2016-05-03T09:23:40Z</time>
      </trkpt>
      <trkpt lat="44.78601" lon="4.54197">
        <ele>514.83</ele>
        <time>2016-05-03T09:24:14Z</time>
      </trkpt>
      <trkpt lat="44.78591" lon="4.54179">
        <ele>512.57</ele>
        <time>2016-05-03T09:25:18Z</time>
      </trkpt>
      <trkpt lat="44.78589" lon="4.54136">
        <ele>502.74</ele>
        <time>2016-05-03T09:25:29Z</time>
      </trkpt>
      <trkpt lat="44.78576" lon="4.5412">
        <ele>496.43</ele>
        <time>2016-05-03T09:25:40Z</time>
      </trkpt>
      <trkpt lat="44.78572" lon="4.54128">
        <ele>498.4</ele>
        <time>2016-05-03T09:26:05Z</time>
      </trkpt>
      <trkpt lat="44.78566" lon="4.54135">
        <ele>499.41</ele>
        <time>2016-05-03T09:27:29Z</time>
      </trkpt>
      <trkpt lat="44.78544" lon="4.54161">
        <ele>501.82</ele>
        <time>2016-05-03T09:27:49Z</time>
      </trkpt>
      <trkpt lat="44.78531" lon="4.54166">
        <ele>499.54</ele>
        <time>2016-05-03T09:28:51Z</time>
      </trkpt>
      <trkpt lat="44.78519" lon="4.5415">
        <ele>490.75</ele>
        <time>2016-05-03T09:29:01Z</time>
      </trkpt>
      <trkpt lat="44.78511" lon="4.54139">
        <ele>484.42</ele>
        <time>2016-05-03T09:29:11Z</time>
      </trkpt>
      <trkpt lat="44.785" lon="4.54142">
        <ele>482.29</ele>
        <time>2016-05-03T09:29:22Z</time>
      </trkpt>
      <trkpt lat="44.78491" lon="4.54139">
        <ele>478.03</ele>
        <time>2016-05-03T09:30:19Z</time>
      </trkpt>
      <trkpt lat="44.78467" lon="4.54134">
        <ele>467.43</ele>
        <time>2016-05-03T09:30:30Z</time>
      </trkpt>
      <trkpt lat="44.7846" lon="4.54135">
        <ele>465.21</ele>
        <time>2016-05-03T09:30:40Z</time>
      </trkpt>
      <trkpt lat="44.78465" lon="4.54129">
        <ele>465.53</ele>
        <time>2016-05-03T09:30:53Z</time>
      </trkpt>
      <trkpt lat="44.78473" lon="4.54129">
        <ele>467.96</ele>
        <time>2016-05-03T09:31:04Z</time>
      </trkpt>
      <trkpt lat="44.78476" lon="4.54117">
        <ele>465.4</ele>
        <time>2016-05-03T09:31:15Z</time>
      </trkpt>
      <trkpt lat="44.78492" lon="4.54122">
        <ele>472.59</ele>
        <time>2016-05-03T09:31:25Z</time>
      </trkpt>
      <trkpt lat="44.78498" lon="4.54115">
        <ele>471.89</ele>
        <time>2016-05-03T09:31:35Z</time>
      </trkpt>
      <trkpt lat="44.7851" lon="4.54109">
        <ele>473.75</ele>
        <time>2016-05-03T09:31:45Z</time>
      </trkpt>
      <trkpt lat="44.78503" lon="4.54102">
        <ele>468.99</ele>
        <time>2016-05-03T09:31:56Z</time>
      </trkpt>
      <trkpt lat="44.78502" lon="4.54111">
        <ele>471.5</ele>
        <time>2016-05-03T09:32:07Z</time>
      </trkpt>
      <trkpt lat="44.78491" lon="4.5411">
        <ele>468.07</ele>
        <time>2016-05-03T09:32:17Z</time>
      </trkpt>
      <trkpt lat="44.78483" lon="4.54101">
        <ele>462.15</ele>
        <time>2016-05-03T09:32:28Z</time>
      </trkpt>
      <trkpt lat="44.78471" lon="4.54096">
        <ele>456.2</ele>
        <time>2016-05-03T09:32:39Z</time>
      </trkpt>
      <trkpt lat="44.78468" lon="4.54101">
        <ele>456.98</ele>
        <time>2016-05-03T09:32:49Z</time>
      </trkpt>
      <trkpt lat="44.78459" lon="4.54103">
        <ele>454.44</ele>
        <time>2016-05-03T09:33:00Z</time>
      </trkpt>
      <trkpt lat="44.78453" lon="4.54102">
        <ele>452.22</ele>
        <time>2016-05-03T09:33:10Z</time>
      </trkpt>
      <trkpt lat="44.78446" lon="4.54095">
        <ele>447.68</ele>
        <time>2016-05-03T09:35:18Z</time>
      </trkpt>
      <trkpt lat="44.78435" lon="4.54068">
        <ele>435.37</ele>
        <time>2016-05-03T09:35:28Z</time>
      </trkpt>
      <trkpt lat="44.78412" lon="4.54074">
        <ele>430.9</ele>
        <time>2016-05-03T09:35:39Z</time>
      </trkpt>
      <trkpt lat="44.78409" lon="4.54085">
        <ele>433.19</ele>
        <time>2016-05-03T09:35:50Z</time>
      </trkpt>
      <trkpt lat="44.78417" lon="4.54071">
        <ele>431.61</ele>
        <time>2016-05-03T09:36:01Z</time>
      </trkpt>
      <trkpt lat="44.78424" lon="4.5406">
        <ele>429.72</ele>
        <time>2016-05-03T09:38:14Z</time>
      </trkpt>
      <trkpt lat="44.78425" lon="4.54039">
        <ele>423.2</ele>
        <time>2016-05-03T09:38:24Z</time>
      </trkpt>
      <trkpt lat="44.7843" lon="4.5402">
        <ele>418.22</ele>
        <time>2016-05-03T09:38:34Z</time>
      </trkpt>
      <trkpt lat="44.78436" lon="4.54016">
        <ele>418.42</ele>
        <time>2016-05-03T09:38:45Z</time>
      </trkpt>
      <trkpt lat="44.78437" lon="4.54002">
        <ele>414.02</ele>
        <time>2016-05-03T09:38:55Z</time>
      </trkpt>
      <trkpt lat="44.78429" lon="4.53995">
        <ele>410.5</ele>
        <time>2016-05-03T09:40:43Z</time>
      </trkpt>
      <trkpt lat="44.78445" lon="4.53964">
        <ele>403.1</ele>
        <time>2016-05-03T09:40:54Z</time>
      </trkpt>
      <trkpt lat="44.78447" lon="4.53943">
        <ele>396.55</ele>
        <time>2016-05-03T09:41:06Z</time>
      </trkpt>
      <trkpt lat="44.78454" lon="4.53927">
        <ele>392.95</ele>
        <time>2016-05-03T09:41:21Z</time>
      </trkpt>
      <trkpt lat="44.78447" lon="4.53922">
        <ele>391.08</ele>
        <time>2016-05-03T09:41:31Z</time>
      </trkpt>
      <trkpt lat="44.78454" lon="4.53907">
        <ele>388.56</ele>
        <time>2016-05-03T09:41:41Z</time>
      </trkpt>
      <trkpt lat="44.78459" lon="4.53904">
        <ele>388.42</ele>
        <time>2016-05-03T09:41:57Z</time>
      </trkpt>
      <trkpt lat="44.78463" lon="4.53898">
        <ele>387.51</ele>
        <time>2016-05-03T09:42:35Z</time>
      </trkpt>
      <trkpt lat="44.78484" lon="4.53903">
        <ele>390.62</ele>
        <time>2016-05-03T09:42:48Z</time>
      </trkpt>
      <trkpt lat="44.78495" lon="4.5389">
        <ele>387.87</ele>
        <time>2016-05-03T09:42:58Z</time>
      </trkpt>
      <trkpt lat="44.78499" lon="4.53881">
        <ele>385.69</ele>
        <time>2016-05-03T09:43:09Z</time>
      </trkpt>
      <trkpt lat="44.78502" lon="4.53874">
        <ele>384.25</ele>
        <time>2016-05-03T09:43:20Z</time>
      </trkpt>
      <trkpt lat="44.78515" lon="4.53864">
        <ele>381.89</ele>
        <time>2016-05-03T09:43:30Z</time>
      </trkpt>
      <trkpt lat="44.78522" lon="4.53863">
        <ele>381.35</ele>
        <time>2016-05-03T09:43:43Z</time>
      </trkpt>
      <trkpt lat="44.78528" lon="4.53861">
        <ele>380.62</ele>
        <time>2016-05-03T09:43:55Z</time>
      </trkpt>
      <trkpt lat="44.78531" lon="4.53855">
        <ele>379.3</ele>
        <time>2016-05-03T09:44:05Z</time>
      </trkpt>
      <trkpt lat="44.78528" lon="4.53862">
        <ele>380.72</ele>
        <time>2016-05-03T09:44:20Z</time>
      </trkpt>
      <trkpt lat="44.78536" lon="4.5382">
        <ele>378.93</ele>
        <time>2016-05-03T09:50:52Z</time>
      </trkpt>
      <trkpt lat="44.7856" lon="4.53759">
        <ele>390.9</ele>
        <time>2016-05-03T09:51:02Z</time>
      </trkpt>
      <trkpt lat="44.78598" lon="4.53711">
        <ele>390.41</ele>
        <time>2016-05-03T09:51:12Z</time>
      </trkpt>
      <trkpt lat="44.78662" lon="4.53649">
        <ele>374.15</ele>
        <time>2016-05-03T09:51:23Z</time>
      </trkpt>
      <trkpt lat="44.78674" lon="4.5362">
        <ele>377.52</ele>
        <time>2016-05-03T09:51:34Z</time>
      </trkpt>
      <trkpt lat="44.78694" lon="4.53607">
        <ele>371.69</ele>
        <time>2016-05-03T09:51:44Z</time>
      </trkpt>
      <trkpt lat="44.78698" lon="4.53582">
        <ele>375.98</ele>
        <time>2016-05-03T09:51:54Z</time>
      </trkpt>
      <trkpt lat="44.78707" lon="4.53584">
        <ele>370.85</ele>
        <time>2016-05-03T09:52:24Z</time>
      </trkpt>
      <trkpt lat="44.78723" lon="4.53566">
        <ele>366.55</ele>
        <time>2016-05-03T09:52:34Z</time>
      </trkpt>
      <trkpt lat="44.78733" lon="4.53561">
        <ele>362.8</ele>
        <time>2016-05-03T09:52:46Z</time>
      </trkpt>
      <trkpt lat="44.78742" lon="4.5354">
        <ele>363.52</ele>
        <time>2016-05-03T09:52:57Z</time>
      </trkpt>
      <trkpt lat="44.78753" lon="4.5352">
        <ele>363.08</ele>
        <time>2016-05-03T09:53:08Z</time>
      </trkpt>
      <trkpt lat="44.78756" lon="4.53514">
        <ele>362.46</ele>
        <time>2016-05-03T09:53:19Z</time>
      </trkpt>
      <trkpt lat="44.78776" lon="4.53498">
        <ele>355.67</ele>
        <time>2016-05-03T09:53:29Z</time>
      </trkpt>
      <trkpt lat="44.78763" lon="4.53487">
        <ele>361.94</ele>
        <time>2016-05-03T09:53:40Z</time>
      </trkpt>
      <trkpt lat="44.7875" lon="4.53468">
        <ele>368.31</ele>
        <time>2016-05-03T09:53:51Z</time>
      </trkpt>
      <trkpt lat="44.78756" lon="4.53454">
        <ele>365.41</ele>
        <time>2016-05-03T09:54:01Z</time>
      </trkpt>
      <trkpt lat="44.78772" lon="4.53432">
        <ele>357.26</ele>
        <time>2016-05-03T09:54:11Z</time>
      </trkpt>
      <trkpt lat="44.78779" lon="4.53418">
        <ele>354.21</ele>
        <time>2016-05-03T09:54:21Z</time>
      </trkpt>
      <trkpt lat="44.78784" lon="4.53406">
        <ele>352.19</ele>
        <time>2016-05-03T09:54:31Z</time>
      </trkpt>
      <trkpt lat="44.78786" lon="4.53392">
        <ele>351.07</ele>
        <time>2016-05-03T09:54:41Z</time>
      </trkpt>
      <trkpt lat="44.78783" lon="4.53384">
        <ele>351.24</ele>
        <time>2016-05-03T09:54:51Z</time>
      </trkpt>
      <trkpt lat="44.7878" lon="4.53371">
        <ele>351.08</ele>
        <time>2016-05-03T09:55:02Z</time>
      </trkpt>
      <trkpt lat="44.78777" lon="4.5336">
        <ele>350.77</ele>
        <time>2016-05-03T09:55:13Z</time>
      </trkpt>
      <trkpt lat="44.78773" lon="4.53344">
        <ele>350.3</ele>
        <time>2016-05-03T09:55:23Z</time>
      </trkpt>
      <trkpt lat="44.78773" lon="4.5333">
        <ele>349.28</ele>
        <time>2016-05-03T09:55:33Z</time>
      </trkpt>
      <trkpt lat="44.78766" lon="4.53316">
        <ele>348.94</ele>
        <time>2016-05-03T09:55:44Z</time>
      </trkpt>
      <trkpt lat="44.78764" lon="4.53308">
        <ele>348.38</ele>
        <time>2016-05-03T09:56:19Z</time>
      </trkpt>
      <trkpt lat="44.78748" lon="4.53301">
        <ele>350.26</ele>
        <time>2016-05-03T09:56:30Z</time>
      </trkpt>
      <trkpt lat="44.78756" lon="4.53292">
        <ele>347.38</ele>
        <time>2016-05-03T09:56:40Z</time>
      </trkpt>
      <trkpt lat="44.7875" lon="4.53274">
        <ele>345.76</ele>
        <time>2016-05-03T09:56:51Z</time>
      </trkpt>
      <trkpt lat="44.7874" lon="4.53265">
        <ele>346.36</ele>
        <time>2016-05-03T09:57:02Z</time>
      </trkpt>
      <trkpt lat="44.78738" lon="4.5326">
        <ele>346.16</ele>
        <time>2016-05-03T09:57:19Z</time>
      </trkpt>
      <trkpt lat="44.78734" lon="4.53256">
        <ele>346.65</ele>
        <time>2016-05-03T09:57:34Z</time>
      </trkpt>
      <trkpt lat="44.78728" lon="4.53243">
        <ele>346.92</ele>
        <time>2016-05-03T09:57:45Z</time>
      </trkpt>
      <trkpt lat="44.7873" lon="4.53235">
        <ele>345.92</ele>
        <time>2016-05-03T09:58:09Z</time>
      </trkpt>
      <trkpt lat="44.78726" lon="4.5324">
        <ele>346.98</ele>
        <time>2016-05-03T09:58:22Z</time>
      </trkpt>
      <trkpt lat="44.78731" lon="4.53236">
        <ele>345.78</ele>
        <time>2016-05-03T09:58:34Z</time>
      </trkpt>
      <trkpt lat="44.78736" lon="4.53224">
        <ele>345.05</ele>
        <time>2016-05-03T09:58:44Z</time>
      </trkpt>
      <trkpt lat="44.78738" lon="4.53218">
        <ele>345.08</ele>
        <time>2016-05-03T09:59:30Z</time>
      </trkpt>
      <trkpt lat="44.78736" lon="4.53212">
        <ele>345.39</ele>
        <time>2016-05-03T09:59:42Z</time>
      </trkpt>
      <trkpt lat="44.78736" lon="4.53204">
        <ele>345.87</ele>
        <time>2016-05-03T10:00:42Z</time>
      </trkpt>
      <trkpt lat="44.78732" lon="4.53205">
        <ele>345.8</ele>
        <time>2016-05-03T10:01:02Z</time>
      </trkpt>
      <trkpt lat="44.7873" lon="4.53194">
        <ele>346.4</ele>
        <time>2016-05-03T10:01:13Z</time>
      </trkpt>
      <trkpt lat="44.78731" lon="4.53172">
        <ele>348.22</ele>
        <time>2016-05-03T10:01:23Z</time>
      </trkpt>
      <trkpt lat="44.78719" lon="4.53163">
        <ele>347.82</ele>
        <time>2016-05-03T10:01:33Z</time>
      </trkpt>
      <trkpt lat="44.78705" lon="4.5316">
        <ele>347.07</ele>
        <time>2016-05-03T10:01:44Z</time>
      </trkpt>
      <trkpt lat="44.78699" lon="4.53148">
        <ele>347.31</ele>
        <time>2016-05-03T10:01:55Z</time>
      </trkpt>
      <trkpt lat="44.78695" lon="4.53137">
        <ele>347.72</ele>
        <time>2016-05-03T10:02:05Z</time>
      </trkpt>
      <trkpt lat="44.78693" lon="4.53116">
        <ele>349.29</ele>
        <time>2016-05-03T10:02:16Z</time>
      </trkpt>
      <trkpt lat="44.78692" lon="4.53108">
        <ele>350.06</ele>
        <time>2016-05-03T10:02:29Z</time>
      </trkpt>
      <trkpt lat="44.78686" lon="4.53098">
        <ele>350.23</ele>
        <time>2016-05-03T10:02:40Z</time>
      </trkpt>
      <trkpt lat="44.78679" lon="4.53089">
        <ele>350.21</ele>
        <time>2016-05-03T10:02:51Z</time>
      </trkpt>
      <trkpt lat="44.78666" lon="4.53085">
        <ele>349.85</ele>
        <time>2016-05-03T10:03:02Z</time>
      </trkpt>
      <trkpt lat="44.78654" lon="4.53076">
        <ele>351.22</ele>
        <time>2016-05-03T10:03:14Z</time>
      </trkpt>
      <trkpt lat="44.7865" lon="4.53066">
        <ele>352.69</ele>
        <time>2016-05-03T10:03:24Z</time>
      </trkpt>
      <trkpt lat="44.78647" lon="4.53053">
        <ele>354.75</ele>
        <time>2016-05-03T10:03:35Z</time>
      </trkpt>
      <trkpt lat="44.78641" lon="4.53035">
        <ele>357.69</ele>
        <time>2016-05-03T10:03:46Z</time>
      </trkpt>
      <trkpt lat="44.78631" lon="4.53021">
        <ele>359.49</ele>
        <time>2016-05-03T10:03:57Z</time>
      </trkpt>
      <trkpt lat="44.78638" lon="4.53008">
        <ele>360.97</ele>
        <time>2016-05-03T10:04:07Z</time>
      </trkpt>
      <trkpt lat="44.78646" lon="4.52993">
        <ele>362.48</ele>
        <time>2016-05-03T10:04:18Z</time>
      </trkpt>
      <trkpt lat="44.7866" lon="4.52981">
        <ele>364.26</ele>
        <time>2016-05-03T10:04:29Z</time>
      </trkpt>
      <trkpt lat="44.78665" lon="4.52965">
        <ele>363.97</ele>
        <time>2016-05-03T10:04:40Z</time>
      </trkpt>
      <trkpt lat="44.78667" lon="4.52959">
        <ele>363.84</ele>
        <time>2016-05-03T10:04:50Z</time>
      </trkpt>
      <trkpt lat="44.78687" lon="4.52961">
        <ele>369.61</ele>
        <time>2016-05-03T10:05:00Z</time>
      </trkpt>
      <trkpt lat="44.7869" lon="4.5295">
        <ele>369.77</ele>
        <time>2016-05-03T10:05:10Z</time>
      </trkpt>
      <trkpt lat="44.78697" lon="4.5292">
        <ele>372.32</ele>
        <time>2016-05-03T10:05:21Z</time>
      </trkpt>
      <trkpt lat="44.78697" lon="4.52908">
        <ele>373.55</ele>
        <time>2016-05-03T10:05:31Z</time>
      </trkpt>
      <trkpt lat="44.78695" lon="4.52892">
        <ele>374.02</ele>
        <time>2016-05-03T10:05:41Z</time>
      </trkpt>
      <trkpt lat="44.78686" lon="4.52877">
        <ele>372.02</ele>
        <time>2016-05-03T10:05:52Z</time>
      </trkpt>
      <trkpt lat="44.78675" lon="4.52873">
        <ele>368.18</ele>
        <time>2016-05-03T10:06:03Z</time>
      </trkpt>
      <trkpt lat="44.78678" lon="4.52848">
        <ele>373.76</ele>
        <time>2016-05-03T10:06:13Z</time>
      </trkpt>
      <trkpt lat="44.78662" lon="4.52841">
        <ele>370.23</ele>
        <time>2016-05-03T10:06:24Z</time>
      </trkpt>
      <trkpt lat="44.78655" lon="4.52821">
        <ele>373.09</ele>
        <time>2016-05-03T10:06:35Z</time>
      </trkpt>
      <trkpt lat="44.78643" lon="4.52815">
        <ele>371.22</ele>
        <time>2016-05-03T10:06:46Z</time>
      </trkpt>
      <trkpt lat="44.78635" lon="4.52799">
        <ele>372.66</ele>
        <time>2016-05-03T10:06:56Z</time>
      </trkpt>
      <trkpt lat="44.78621" lon="4.52784">
        <ele>370.61</ele>
        <time>2016-05-03T10:07:07Z</time>
      </trkpt>
      <trkpt lat="44.78611" lon="4.52777">
        <ele>368.26</ele>
        <time>2016-05-03T10:07:17Z</time>
      </trkpt>
      <trkpt lat="44.78603" lon="4.52779">
        <ele>365.94</ele>
        <time>2016-05-03T10:07:28Z</time>
      </trkpt>
      <trkpt lat="44.78603" lon="4.52761">
        <ele>367.4</ele>
        <time>2016-05-03T10:07:39Z</time>
      </trkpt>
      <trkpt lat="44.78597" lon="4.52744">
        <ele>367.11</ele>
        <time>2016-05-03T10:07:49Z</time>
      </trkpt>
      <trkpt lat="44.78587" lon="4.5274">
        <ele>365.41</ele>
        <time>2016-05-03T10:08:00Z</time>
      </trkpt>
      <trkpt lat="44.78574" lon="4.52733">
        <ele>364.97</ele>
        <time>2016-05-03T10:08:10Z</time>
      </trkpt>
      <trkpt lat="44.7857" lon="4.52716">
        <ele>366.68</ele>
        <time>2016-05-03T10:08:20Z</time>
      </trkpt>
      <trkpt lat="44.7857" lon="4.52696">
        <ele>369.42</ele>
        <time>2016-05-03T10:08:31Z</time>
      </trkpt>
      <trkpt lat="44.78567" lon="4.52676">
        <ele>371.79</ele>
        <time>2016-05-03T10:08:41Z</time>
      </trkpt>
      <trkpt lat="44.78563" lon="4.5266">
        <ele>373.06</ele>
        <time>2016-05-03T10:08:52Z</time>
      </trkpt>
      <trkpt lat="44.78554" lon="4.52648">
        <ele>372.12</ele>
        <time>2016-05-03T10:09:03Z</time>
      </trkpt>
      <trkpt lat="44.7855" lon="4.52626">
        <ele>373.29</ele>
        <time>2016-05-03T10:09:14Z</time>
      </trkpt>
      <trkpt lat="44.78544" lon="4.52616">
        <ele>372.42</ele>
        <time>2016-05-03T10:09:25Z</time>
      </trkpt>
      <trkpt lat="44.78531" lon="4.52599">
        <ele>368.73</ele>
        <time>2016-05-03T10:09:35Z</time>
      </trkpt>
      <trkpt lat="44.78525" lon="4.52583">
        <ele>367.2</ele>
        <time>2016-05-03T10:09:45Z</time>
      </trkpt>
      <trkpt lat="44.78526" lon="4.5257">
        <ele>368.42</ele>
        <time>2016-05-03T10:09:56Z</time>
      </trkpt>
      <trkpt lat="44.78525" lon="4.5256">
        <ele>368.5</ele>
        <time>2016-05-03T10:10:06Z</time>
      </trkpt>
      <trkpt lat="44.78533" lon="4.52547">
        <ele>371.92</ele>
        <time>2016-05-03T10:10:16Z</time>
      </trkpt>
      <trkpt lat="44.78542" lon="4.52536">
        <ele>375.86</ele>
        <time>2016-05-03T10:10:27Z</time>
      </trkpt>
      <trkpt lat="44.78554" lon="4.5253">
        <ele>380.34</ele>
        <time>2016-05-03T10:10:37Z</time>
      </trkpt>
      <trkpt lat="44.78559" lon="4.52523">
        <ele>382.16</ele>
        <time>2016-05-03T10:10:48Z</time>
      </trkpt>
      <trkpt lat="44.78564" lon="4.52509">
        <ele>384.41</ele>
        <time>2016-05-03T10:10:59Z</time>
      </trkpt>
      <trkpt lat="44.78563" lon="4.52489">
        <ele>386.68</ele>
        <time>2016-05-03T10:11:09Z</time>
      </trkpt>
      <trkpt lat="44.78556" lon="4.52487">
        <ele>385.29</ele>
        <time>2016-05-03T10:11:19Z</time>
      </trkpt>
      <trkpt lat="44.78543" lon="4.5249">
        <ele>381.81</ele>
        <time>2016-05-03T10:11:30Z</time>
      </trkpt>
      <trkpt lat="44.78527" lon="4.52513">
        <ele>373.75</ele>
        <time>2016-05-03T10:11:41Z</time>
      </trkpt>
      <trkpt lat="44.78515" lon="4.52516">
        <ele>371.27</ele>
        <time>2016-05-03T10:11:51Z</time>
      </trkpt>
      <trkpt lat="44.78497" lon="4.5251">
        <ele>370.58</ele>
        <time>2016-05-03T10:12:02Z</time>
      </trkpt>
      <trkpt lat="44.78496" lon="4.52501">
        <ele>372.48</ele>
        <time>2016-05-03T10:12:12Z</time>
      </trkpt>
      <trkpt lat="44.78485" lon="4.52497">
        <ele>372.65</ele>
        <time>2016-05-03T10:12:23Z</time>
      </trkpt>
      <trkpt lat="44.78481" lon="4.52491">
        <ele>373.73</ele>
        <time>2016-05-03T10:12:34Z</time>
      </trkpt>
      <trkpt lat="44.78473" lon="4.5249">
        <ele>373.5</ele>
        <time>2016-05-03T10:12:44Z</time>
      </trkpt>
      <trkpt lat="44.78469" lon="4.52468">
        <ele>377.66</ele>
        <time>2016-05-03T10:12:54Z</time>
      </trkpt>
      <trkpt lat="44.78463" lon="4.52451">
        <ele>379.8</ele>
        <time>2016-05-03T10:13:04Z</time>
      </trkpt>
      <trkpt lat="44.78454" lon="4.52436">
        <ele>379.31</ele>
        <time>2016-05-03T10:13:15Z</time>
      </trkpt>
      <trkpt lat="44.78452" lon="4.52421">
        <ele>380.54</ele>
        <time>2016-05-03T10:13:25Z</time>
      </trkpt>
      <trkpt lat="44.78443" lon="4.52408">
        <ele>378.05</ele>
        <time>2016-05-03T10:13:36Z</time>
      </trkpt>
      <trkpt lat="44.78433" lon="4.5239">
        <ele>375.85</ele>
        <time>2016-05-03T10:13:46Z</time>
      </trkpt>
      <trkpt lat="44.78424" lon="4.5238">
        <ele>374.47</ele>
        <time>2016-05-03T10:13:56Z</time>
      </trkpt>
      <trkpt lat="44.78422" lon="4.52372">
        <ele>375.01</ele>
        <time>2016-05-03T10:14:06Z</time>
      </trkpt>
      <trkpt lat="44.7842" lon="4.52355">
        <ele>377.11</ele>
        <time>2016-05-03T10:14:17Z</time>
      </trkpt>
      <trkpt lat="44.78416" lon="4.52338">
        <ele>379.14</ele>
        <time>2016-05-03T10:14:28Z</time>
      </trkpt>
      <trkpt lat="44.78415" lon="4.52321">
        <ele>381.79</ele>
        <time>2016-05-03T10:14:39Z</time>
      </trkpt>
      <trkpt lat="44.78409" lon="4.52307">
        <ele>383.28</ele>
        <time>2016-05-03T10:14:49Z</time>
      </trkpt>
      <trkpt lat="44.78404" lon="4.52289">
        <ele>385.22</ele>
        <time>2016-05-03T10:14:59Z</time>
      </trkpt>
      <trkpt lat="44.78401" lon="4.52275">
        <ele>386.97</ele>
        <time>2016-05-03T10:15:09Z</time>
      </trkpt>
      <trkpt lat="44.784" lon="4.52259">
        <ele>389.83</ele>
        <time>2016-05-03T10:15:19Z</time>
      </trkpt>
      <trkpt lat="44.78395" lon="4.52248">
        <ele>389.56</ele>
        <time>2016-05-03T10:15:29Z</time>
      </trkpt>
      <trkpt lat="44.78392" lon="4.52234">
        <ele>390.19</ele>
        <time>2016-05-03T10:15:39Z</time>
      </trkpt>
      <trkpt lat="44.78385" lon="4.52217">
        <ele>389.29</ele>
        <time>2016-05-03T10:15:50Z</time>
      </trkpt>
      <trkpt lat="44.78382" lon="4.52205">
        <ele>389.61</ele>
        <time>2016-05-03T10:16:00Z</time>
      </trkpt>
      <trkpt lat="44.78372" lon="4.52195">
        <ele>386.82</ele>
        <time>2016-05-03T10:16:11Z</time>
      </trkpt>
      <trkpt lat="44.78362" lon="4.52187">
        <ele>383.94</ele>
        <time>2016-05-03T10:16:22Z</time>
      </trkpt>
      <trkpt lat="44.78356" lon="4.5217">
        <ele>385.81</ele>
        <time>2016-05-03T10:16:33Z</time>
      </trkpt>
      <trkpt lat="44.78348" lon="4.52159">
        <ele>385.63</ele>
        <time>2016-05-03T10:16:44Z</time>
      </trkpt>
      <trkpt lat="44.7834" lon="4.52148">
        <ele>386.35</ele>
        <time>2016-05-03T10:16:54Z</time>
      </trkpt>
      <trkpt lat="44.78332" lon="4.52131">
        <ele>388.98</ele>
        <time>2016-05-03T10:17:05Z</time>
      </trkpt>
      <trkpt lat="44.78322" lon="4.52118">
        <ele>389.3</ele>
        <time>2016-05-03T10:17:15Z</time>
      </trkpt>
      <trkpt lat="44.78317" lon="4.52102">
        <ele>391.18</ele>
        <time>2016-05-03T10:17:25Z</time>
      </trkpt>
      <trkpt lat="44.78309" lon="4.52094">
        <ele>389.37</ele>
        <time>2016-05-03T10:17:36Z</time>
      </trkpt>
      <trkpt lat="44.78301" lon="4.52086">
        <ele>386.86</ele>
        <time>2016-05-03T10:17:46Z</time>
      </trkpt>
      <trkpt lat="44.78292" lon="4.52071">
        <ele>385.02</ele>
        <time>2016-05-03T10:17:56Z</time>
      </trkpt>
      <trkpt lat="44.78287" lon="4.52055">
        <ele>384.51</ele>
        <time>2016-05-03T10:18:06Z</time>
      </trkpt>
      <trkpt lat="44.78278" lon="4.5204">
        <ele>382.78</ele>
        <time>2016-05-03T10:18:17Z</time>
      </trkpt>
      <trkpt lat="44.78268" lon="4.52028">
        <ele>380.02</ele>
        <time>2016-05-03T10:18:27Z</time>
      </trkpt>
      <trkpt lat="44.78259" lon="4.52022">
        <ele>377.72</ele>
        <time>2016-05-03T10:18:38Z</time>
      </trkpt>
      <trkpt lat="44.78251" lon="4.52001">
        <ele>378.17</ele>
        <time>2016-05-03T10:18:49Z</time>
      </trkpt>
      <trkpt lat="44.78258" lon="4.51986">
        <ele>381.96</ele>
        <time>2016-05-03T10:19:00Z</time>
      </trkpt>
      <trkpt lat="44.78265" lon="4.51975">
        <ele>386.13</ele>
        <time>2016-05-03T10:19:10Z</time>
      </trkpt>
      <trkpt lat="44.78257" lon="4.51957">
        <ele>385.71</ele>
        <time>2016-05-03T10:19:21Z</time>
      </trkpt>
      <trkpt lat="44.78251" lon="4.51938">
        <ele>387.45</ele>
        <time>2016-05-03T10:19:32Z</time>
      </trkpt>
      <trkpt lat="44.7824" lon="4.51932">
        <ele>385.39</ele>
        <time>2016-05-03T10:19:43Z</time>
      </trkpt>
      <trkpt lat="44.78231" lon="4.51919">
        <ele>385.51</ele>
        <time>2016-05-03T10:19:53Z</time>
      </trkpt>
      <trkpt lat="44.78227" lon="4.51901">
        <ele>388.69</ele>
        <time>2016-05-03T10:20:03Z</time>
      </trkpt>
      <trkpt lat="44.7822" lon="4.51889">
        <ele>390.08</ele>
        <time>2016-05-03T10:20:14Z</time>
      </trkpt>
      <trkpt lat="44.78213" lon="4.51878">
        <ele>391.42</ele>
        <time>2016-05-03T10:20:25Z</time>
      </trkpt>
      <trkpt lat="44.78203" lon="4.5187">
        <ele>389.93</ele>
        <time>2016-05-03T10:20:35Z</time>
      </trkpt>
      <trkpt lat="44.78195" lon="4.51863">
        <ele>388.92</ele>
        <time>2016-05-03T10:20:45Z</time>
      </trkpt>
      <trkpt lat="44.78182" lon="4.51855">
        <ele>386.73</ele>
        <time>2016-05-03T10:20:56Z</time>
      </trkpt>
      <trkpt lat="44.78171" lon="4.51854">
        <ele>383.72</ele>
        <time>2016-05-03T10:21:06Z</time>
      </trkpt>
      <trkpt lat="44.78165" lon="4.51848">
        <ele>383.3</ele>
        <time>2016-05-03T10:21:16Z</time>
      </trkpt>
      <trkpt lat="44.78157" lon="4.51835">
        <ele>383.39</ele>
        <time>2016-05-03T10:21:26Z</time>
      </trkpt>
      <trkpt lat="44.7815" lon="4.51819">
        <ele>383.04</ele>
        <time>2016-05-03T10:21:37Z</time>
      </trkpt>
      <trkpt lat="44.78143" lon="4.51802">
        <ele>383.06</ele>
        <time>2016-05-03T10:21:48Z</time>
      </trkpt>
      <trkpt lat="44.7813" lon="4.51799">
        <ele>380.49</ele>
        <time>2016-05-03T10:21:59Z</time>
      </trkpt>
      <trkpt lat="44.78124" lon="4.51792">
        <ele>380.6</ele>
        <time>2016-05-03T10:22:09Z</time>
      </trkpt>
      <trkpt lat="44.78119" lon="4.51804">
        <ele>377.99</ele>
        <time>2016-05-03T10:22:38Z</time>
      </trkpt>
      <trkpt lat="44.78097" lon="4.51837">
        <ele>375.26</ele>
        <time>2016-05-03T10:22:49Z</time>
      </trkpt>
      <trkpt lat="44.78087" lon="4.51851">
        <ele>378.96</ele>
        <time>2016-05-03T10:22:59Z</time>
      </trkpt>
      <trkpt lat="44.78081" lon="4.51852">
        <ele>380.93</ele>
        <time>2016-05-03T10:23:11Z</time>
      </trkpt>
      <trkpt lat="44.78075" lon="4.5185">
        <ele>382.49</ele>
        <time>2016-05-03T10:23:56Z</time>
      </trkpt>
      <trkpt lat="44.78082" lon="4.5187">
        <ele>386.01</ele>
        <time>2016-05-03T10:28:39Z</time>
      </trkpt>
      <trkpt lat="44.78105" lon="4.51902">
        <ele>387.89</ele>
        <time>2016-05-03T10:28:49Z</time>
      </trkpt>
      <trkpt lat="44.78115" lon="4.51911">
        <ele>386.34</ele>
        <time>2016-05-03T10:29:00Z</time>
      </trkpt>
      <trkpt lat="44.78117" lon="4.51924">
        <ele>388.23</ele>
        <time>2016-05-03T10:29:10Z</time>
      </trkpt>
      <trkpt lat="44.7813" lon="4.51943">
        <ele>386.44</ele>
        <time>2016-05-03T10:29:21Z</time>
      </trkpt>
      <trkpt lat="44.78131" lon="4.51953">
        <ele>388.21</ele>
        <time>2016-05-03T10:29:31Z</time>
      </trkpt>
      <trkpt lat="44.78146" lon="4.51964">
        <ele>384.85</ele>
        <time>2016-05-03T10:29:42Z</time>
      </trkpt>
      <trkpt lat="44.78134" lon="4.51985">
        <ele>393.88</ele>
        <time>2016-05-03T10:29:53Z</time>
      </trkpt>
      <trkpt lat="44.78145" lon="4.52001">
        <ele>393.06</ele>
        <time>2016-05-03T10:30:04Z</time>
      </trkpt>
      <trkpt lat="44.78148" lon="4.52014">
        <ele>395.07</ele>
        <time>2016-05-03T10:30:15Z</time>
      </trkpt>
      <trkpt lat="44.78127" lon="4.51997">
        <ele>399.52</ele>
        <time>2016-05-03T10:30:28Z</time>
      </trkpt>
      <trkpt lat="44.7812" lon="4.52012">
        <ele>405.7</ele>
        <time>2016-05-03T10:30:38Z</time>
      </trkpt>
      <trkpt lat="44.78154" lon="4.52022">
        <ele>395.16</ele>
        <time>2016-05-03T10:30:49Z</time>
      </trkpt>
      <trkpt lat="44.78164" lon="4.52021">
        <ele>391.81</ele>
        <time>2016-05-03T10:30:59Z</time>
      </trkpt>
      <trkpt lat="44.78164" lon="4.52034">
        <ele>395.31</ele>
        <time>2016-05-03T10:34:05Z</time>
      </trkpt>
      <trkpt lat="44.78162" lon="4.52072">
        <ele>407.59</ele>
        <time>2016-05-03T10:34:16Z</time>
      </trkpt>
      <trkpt lat="44.78162" lon="4.52096">
        <ele>415.7</ele>
        <time>2016-05-03T10:34:57Z</time>
      </trkpt>
      <trkpt lat="44.78152" lon="4.52087">
        <ele>414.86</ele>
        <time>2016-05-03T10:35:08Z</time>
      </trkpt>
      <trkpt lat="44.78146" lon="4.52092">
        <ele>417.61</ele>
        <time>2016-05-03T10:35:19Z</time>
      </trkpt>
      <trkpt lat="44.78141" lon="4.52095">
        <ele>419.59</ele>
        <time>2016-05-03T10:35:29Z</time>
      </trkpt>
      <trkpt lat="44.78146" lon="4.52102">
        <ele>421.37</ele>
        <time>2016-05-03T10:37:36Z</time>
      </trkpt>
      <trkpt lat="44.78155" lon="4.52134">
        <ele>431.75</ele>
        <time>2016-05-03T10:37:47Z</time>
      </trkpt>
      <trkpt lat="44.78164" lon="4.52151">
        <ele>436.05</ele>
        <time>2016-05-03T10:38:05Z</time>
      </trkpt>
      <trkpt lat="44.78161" lon="4.52167">
        <ele>442.56</ele>
        <time>2016-05-03T10:39:08Z</time>
      </trkpt>
      <trkpt lat="44.78144" lon="4.5218">
        <ele>450.68</ele>
        <time>2016-05-03T10:39:19Z</time>
      </trkpt>
      <trkpt lat="44.78137" lon="4.52189">
        <ele>454.47</ele>
        <time>2016-05-03T10:39:29Z</time>
      </trkpt>
      <trkpt lat="44.78121" lon="4.52191">
        <ele>456.89</ele>
        <time>2016-05-03T10:40:33Z</time>
      </trkpt>
      <trkpt lat="44.78112" lon="4.52204">
        <ele>462.27</ele>
        <time>2016-05-03T10:42:20Z</time>
      </trkpt>
      <trkpt lat="44.78135" lon="4.52233">
        <ele>469.79</ele>
        <time>2016-05-03T10:44:32Z</time>
      </trkpt>
      <trkpt lat="44.78143" lon="4.52252">
        <ele>473.81</ele>
        <time>2016-05-03T10:44:58Z</time>
      </trkpt>
      <trkpt lat="44.78158" lon="4.52268">
        <ele>474.49</ele>
        <time>2016-05-03T10:45:10Z</time>
      </trkpt>
      <trkpt lat="44.78165" lon="4.52292">
        <ele>478.33</ele>
        <time>2016-05-03T10:45:21Z</time>
      </trkpt>
      <trkpt lat="44.78164" lon="4.52304">
        <ele>481.73</ele>
        <time>2016-05-03T10:45:32Z</time>
      </trkpt>
      <trkpt lat="44.78162" lon="4.5232">
        <ele>486.3</ele>
        <time>2016-05-03T10:45:42Z</time>
      </trkpt>
      <trkpt lat="44.78156" lon="4.52334">
        <ele>492.15</ele>
        <time>2016-05-03T10:45:55Z</time>
      </trkpt>
      <trkpt lat="44.78163" lon="4.52355">
        <ele>492.04</ele>
        <time>2016-05-03T10:46:05Z</time>
      </trkpt>
      <trkpt lat="44.78165" lon="4.52378">
        <ele>493.05</ele>
        <time>2016-05-03T10:47:17Z</time>
      </trkpt>
      <trkpt lat="44.78159" lon="4.52397">
        <ele>497.93</ele>
        <time>2016-05-03T10:47:29Z</time>
      </trkpt>
      <trkpt lat="44.78155" lon="4.52404">
        <ele>500.65</ele>
        <time>2016-05-03T10:47:41Z</time>
      </trkpt>
      <trkpt lat="44.78153" lon="4.52417">
        <ele>503.43</ele>
        <time>2016-05-03T10:47:51Z</time>
      </trkpt>
      <trkpt lat="44.78151" lon="4.52428">
        <ele>506.02</ele>
        <time>2016-05-03T10:48:02Z</time>
      </trkpt>
      <trkpt lat="44.78153" lon="4.52435">
        <ele>505.52</ele>
        <time>2016-05-03T10:49:15Z</time>
      </trkpt>
      <trkpt lat="44.78158" lon="4.52454">
        <ele>505.4</ele>
        <time>2016-05-03T10:49:26Z</time>
      </trkpt>
      <trkpt lat="44.7816" lon="4.52486">
        <ele>508.96</ele>
        <time>2016-05-03T10:50:09Z</time>
      </trkpt>
      <trkpt lat="44.78161" lon="4.52521">
        <ele>514.46</ele>
        <time>2016-05-03T10:50:21Z</time>
      </trkpt>
      <trkpt lat="44.7816" lon="4.52529">
        <ele>516.29</ele>
        <time>2016-05-03T10:51:12Z</time>
      </trkpt>
      <trkpt lat="44.78165" lon="4.52543">
        <ele>517.15</ele>
        <time>2016-05-03T10:52:37Z</time>
      </trkpt>
      <trkpt lat="44.78173" lon="4.5256">
        <ele>517.15</ele>
        <time>2016-05-03T11:26:20Z</time>
      </trkpt>
      <trkpt lat="44.78184" lon="4.5258">
        <ele>516.16</ele>
        <time>2016-05-03T11:26:30Z</time>
      </trkpt>
      <trkpt lat="44.78186" lon="4.5259">
        <ele>516.62</ele>
        <time>2016-05-03T11:26:41Z</time>
      </trkpt>
      <trkpt lat="44.78186" lon="4.52597">
        <ele>517.19</ele>
        <time>2016-05-03T11:27:17Z</time>
      </trkpt>
      <trkpt lat="44.78187" lon="4.5262">
        <ele>517.85</ele>
        <time>2016-05-03T11:27:28Z</time>
      </trkpt>
      <trkpt lat="44.7819" lon="4.52631">
        <ele>517.13</ele>
        <time>2016-05-03T11:27:58Z</time>
      </trkpt>
      <trkpt lat="44.78187" lon="4.52641">
        <ele>518.25</ele>
        <time>2016-05-03T11:28:45Z</time>
      </trkpt>
      <trkpt lat="44.78176" lon="4.52651">
        <ele>521.92</ele>
        <time>2016-05-03T11:28:56Z</time>
      </trkpt>
      <trkpt lat="44.78156" lon="4.52655">
        <ele>527.64</ele>
        <time>2016-05-03T11:29:27Z</time>
      </trkpt>
      <trkpt lat="44.78143" lon="4.52661">
        <ele>531.06</ele>
        <time>2016-05-03T11:29:37Z</time>
      </trkpt>
      <trkpt lat="44.78129" lon="4.52672">
        <ele>533.79</ele>
        <time>2016-05-03T11:29:52Z</time>
      </trkpt>
      <trkpt lat="44.78126" lon="4.52684">
        <ele>533.93</ele>
        <time>2016-05-03T11:30:03Z</time>
      </trkpt>
      <trkpt lat="44.78117" lon="4.52694">
        <ele>534.95</ele>
        <time>2016-05-03T11:30:13Z</time>
      </trkpt>
      <trkpt lat="44.78105" lon="4.52714">
        <ele>535.8</ele>
        <time>2016-05-03T11:30:58Z</time>
      </trkpt>
      <trkpt lat="44.78104" lon="4.52741">
        <ele>535.39</ele>
        <time>2016-05-03T11:31:08Z</time>
      </trkpt>
      <trkpt lat="44.78104" lon="4.52751">
        <ele>535.66</ele>
        <time>2016-05-03T11:31:19Z</time>
      </trkpt>
      <trkpt lat="44.78109" lon="4.5276">
        <ele>535.69</ele>
        <time>2016-05-03T11:31:29Z</time>
      </trkpt>
      <trkpt lat="44.78111" lon="4.52777">
        <ele>537.38</ele>
        <time>2016-05-03T11:31:40Z</time>
      </trkpt>
      <trkpt lat="44.78116" lon="4.52784">
        <ele>538.09</ele>
        <time>2016-05-03T11:31:50Z</time>
      </trkpt>
      <trkpt lat="44.78112" lon="4.52795">
        <ele>539.84</ele>
        <time>2016-05-03T11:32:00Z</time>
      </trkpt>
      <trkpt lat="44.78114" lon="4.52802">
        <ele>540.76</ele>
        <time>2016-05-03T11:32:10Z</time>
      </trkpt>
      <trkpt lat="44.78113" lon="4.52814">
        <ele>542.65</ele>
        <time>2016-05-03T11:32:21Z</time>
      </trkpt>
      <trkpt lat="44.78114" lon="4.52823">
        <ele>543.94</ele>
        <time>2016-05-03T11:32:31Z</time>
      </trkpt>
      <trkpt lat="44.78117" lon="4.52827">
        <ele>544.56</ele>
        <time>2016-05-03T11:32:42Z</time>
      </trkpt>
      <trkpt lat="44.78113" lon="4.52834">
        <ele>545.45</ele>
        <time>2016-05-03T11:33:03Z</time>
      </trkpt>
      <trkpt lat="44.78124" lon="4.5284">
        <ele>546.08</ele>
        <time>2016-05-03T11:33:14Z</time>
      </trkpt>
      <trkpt lat="44.78126" lon="4.52848">
        <ele>546.97</ele>
        <time>2016-05-03T11:33:25Z</time>
      </trkpt>
      <trkpt lat="44.78121" lon="4.52854">
        <ele>547.88</ele>
        <time>2016-05-03T11:33:37Z</time>
      </trkpt>
      <trkpt lat="44.78118" lon="4.52865">
        <ele>549.42</ele>
        <time>2016-05-03T11:34:30Z</time>
      </trkpt>
      <trkpt lat="44.78113" lon="4.52889">
        <ele>552.55</ele>
        <time>2016-05-03T11:35:03Z</time>
      </trkpt>
      <trkpt lat="44.78118" lon="4.52885">
        <ele>551.86</ele>
        <time>2016-05-03T11:35:13Z</time>
      </trkpt>
      <trkpt lat="44.78115" lon="4.52895">
        <ele>553.19</ele>
        <time>2016-05-03T11:35:23Z</time>
      </trkpt>
      <trkpt lat="44.78109" lon="4.52896">
        <ele>553.59</ele>
        <time>2016-05-03T11:36:05Z</time>
      </trkpt>
      <trkpt lat="44.78101" lon="4.52911">
        <ele>555.63</ele>
        <time>2016-05-03T11:36:16Z</time>
      </trkpt>
      <trkpt lat="44.78097" lon="4.52915">
        <ele>556.27</ele>
        <time>2016-05-03T11:36:26Z</time>
      </trkpt>
      <trkpt lat="44.78095" lon="4.52929">
        <ele>557.94</ele>
        <time>2016-05-03T11:36:37Z</time>
      </trkpt>
      <trkpt lat="44.78083" lon="4.52928">
        <ele>558.28</ele>
        <time>2016-05-03T11:36:47Z</time>
      </trkpt>
      <trkpt lat="44.78079" lon="4.52934">
        <ele>559.14</ele>
        <time>2016-05-03T11:36:58Z</time>
      </trkpt>
      <trkpt lat="44.78068" lon="4.52933">
        <ele>558.89</ele>
        <time>2016-05-03T11:37:08Z</time>
      </trkpt>
      <trkpt lat="44.78054" lon="4.52933">
        <ele>558.21</ele>
        <time>2016-05-03T11:37:19Z</time>
      </trkpt>
      <trkpt lat="44.7805" lon="4.52937">
        <ele>558.34</ele>
        <time>2016-05-03T11:37:47Z</time>
      </trkpt>
      <trkpt lat="44.78039" lon="4.52942">
        <ele>558.01</ele>
        <time>2016-05-03T11:38:28Z</time>
      </trkpt>
      <trkpt lat="44.78028" lon="4.52952">
        <ele>557.99</ele>
        <time>2016-05-03T11:38:40Z</time>
      </trkpt>
      <trkpt lat="44.78017" lon="4.52952">
        <ele>557.22</ele>
        <time>2016-05-03T11:38:51Z</time>
      </trkpt>
      <trkpt lat="44.78003" lon="4.52951">
        <ele>556.7</ele>
        <time>2016-05-03T11:39:08Z</time>
      </trkpt>
      <trkpt lat="44.78007" lon="4.52954">
        <ele>556.93</ele>
        <time>2016-05-03T11:39:38Z</time>
      </trkpt>
      <trkpt lat="44.78003" lon="4.52966">
        <ele>557.29</ele>
        <time>2016-05-03T11:39:48Z</time>
      </trkpt>
      <trkpt lat="44.78001" lon="4.5298">
        <ele>557.43</ele>
        <time>2016-05-03T11:39:59Z</time>
      </trkpt>
      <trkpt lat="44.77982" lon="4.52979">
        <ele>556.95</ele>
        <time>2016-05-03T11:40:09Z</time>
      </trkpt>
      <trkpt lat="44.77977" lon="4.52988">
        <ele>556.4</ele>
        <time>2016-05-03T11:40:19Z</time>
      </trkpt>
      <trkpt lat="44.77969" lon="4.52988">
        <ele>556.19</ele>
        <time>2016-05-03T11:40:29Z</time>
      </trkpt>
      <trkpt lat="44.77971" lon="4.53">
        <ele>555.23</ele>
        <time>2016-05-03T11:44:02Z</time>
      </trkpt>
      <trkpt lat="44.77966" lon="4.52994">
        <ele>555.58</ele>
        <time>2016-05-03T11:44:12Z</time>
      </trkpt>
      <trkpt lat="44.77957" lon="4.52996">
        <ele>555.03</ele>
        <time>2016-05-03T11:44:23Z</time>
      </trkpt>
      <trkpt lat="44.77942" lon="4.53001">
        <ele>553.72</ele>
        <time>2016-05-03T11:44:34Z</time>
      </trkpt>
      <trkpt lat="44.77924" lon="4.52999">
        <ele>553.5</ele>
        <time>2016-05-03T11:44:44Z</time>
      </trkpt>
      <trkpt lat="44.77925" lon="4.53007">
        <ele>551.66</ele>
        <time>2016-05-03T11:44:55Z</time>
      </trkpt>
      <trkpt lat="44.77911" lon="4.53018">
        <ele>548.18</ele>
        <time>2016-05-03T11:45:06Z</time>
      </trkpt>
      <trkpt lat="44.779" lon="4.53023">
        <ele>546.08</ele>
        <time>2016-05-03T11:45:18Z</time>
      </trkpt>
      <trkpt lat="44.77889" lon="4.53027">
        <ele>543.86</ele>
        <time>2016-05-03T11:46:22Z</time>
      </trkpt>
      <trkpt lat="44.7785" lon="4.53029">
        <ele>540.62</ele>
        <time>2016-05-03T11:46:33Z</time>
      </trkpt>
      <trkpt lat="44.7784" lon="4.53022">
        <ele>543.22</ele>
        <time>2016-05-03T11:47:04Z</time>
      </trkpt>
      <trkpt lat="44.77828" lon="4.5302">
        <ele>543.88</ele>
        <time>2016-05-03T11:47:22Z</time>
      </trkpt>
      <trkpt lat="44.77823" lon="4.53027">
        <ele>540.84</ele>
        <time>2016-05-03T11:48:09Z</time>
      </trkpt>
      <trkpt lat="44.77799" lon="4.5303">
        <ele>539.52</ele>
        <time>2016-05-03T11:48:20Z</time>
      </trkpt>
      <trkpt lat="44.77781" lon="4.53036">
        <ele>537.57</ele>
        <time>2016-05-03T11:48:31Z</time>
      </trkpt>
      <trkpt lat="44.77769" lon="4.53038">
        <ele>537.39</ele>
        <time>2016-05-03T11:48:41Z</time>
      </trkpt>
      <trkpt lat="44.77752" lon="4.53039">
        <ele>538.46</ele>
        <time>2016-05-03T11:48:51Z</time>
      </trkpt>
      <trkpt lat="44.77736" lon="4.53038">
        <ele>541.46</ele>
        <time>2016-05-03T11:49:03Z</time>
      </trkpt>
      <trkpt lat="44.77731" lon="4.53051">
        <ele>536.55</ele>
        <time>2016-05-03T11:50:10Z</time>
      </trkpt>
      <trkpt lat="44.7771" lon="4.53065">
        <ele>535.38</ele>
        <time>2016-05-03T11:50:21Z</time>
      </trkpt>
      <trkpt lat="44.77696" lon="4.53075">
        <ele>534.87</ele>
        <time>2016-05-03T11:50:32Z</time>
      </trkpt>
      <trkpt lat="44.77683" lon="4.53079">
        <ele>536.11</ele>
        <time>2016-05-03T11:50:43Z</time>
      </trkpt>
      <trkpt lat="44.77673" lon="4.53089">
        <ele>533.58</ele>
        <time>2016-05-03T11:50:53Z</time>
      </trkpt>
      <trkpt lat="44.77662" lon="4.53106">
        <ele>527.57</ele>
        <time>2016-05-03T11:51:08Z</time>
      </trkpt>
      <trkpt lat="44.7765" lon="4.53107">
        <ele>528.23</ele>
        <time>2016-05-03T11:51:19Z</time>
      </trkpt>
      <trkpt lat="44.77641" lon="4.53111">
        <ele>527.14</ele>
        <time>2016-05-03T11:51:29Z</time>
      </trkpt>
      <trkpt lat="44.77619" lon="4.53114">
        <ele>527.15</ele>
        <time>2016-05-03T11:51:40Z</time>
      </trkpt>
      <trkpt lat="44.77612" lon="4.53119">
        <ele>524.87</ele>
        <time>2016-05-03T11:51:51Z</time>
      </trkpt>
      <trkpt lat="44.77603" lon="4.53114">
        <ele>527.73</ele>
        <time>2016-05-03T11:52:02Z</time>
      </trkpt>
      <trkpt lat="44.77591" lon="4.53124">
        <ele>523.13</ele>
        <time>2016-05-03T11:52:14Z</time>
      </trkpt>
      <trkpt lat="44.77583" lon="4.5313">
        <ele>520.39</ele>
        <time>2016-05-03T11:52:24Z</time>
      </trkpt>
      <trkpt lat="44.77576" lon="4.53132">
        <ele>519.61</ele>
        <time>2016-05-03T11:52:35Z</time>
      </trkpt>
      <trkpt lat="44.77567" lon="4.53133">
        <ele>518.72</ele>
        <time>2016-05-03T11:52:46Z</time>
      </trkpt>
      <trkpt lat="44.77558" lon="4.53127">
        <ele>521.14</ele>
        <time>2016-05-03T11:52:56Z</time>
      </trkpt>
      <trkpt lat="44.77549" lon="4.53123">
        <ele>522.87</ele>
        <time>2016-05-03T11:53:37Z</time>
      </trkpt>
      <trkpt lat="44.77518" lon="4.53124">
        <ele>520.68</ele>
        <time>2016-05-03T11:53:48Z</time>
      </trkpt>
      <trkpt lat="44.77505" lon="4.53114">
        <ele>524.23</ele>
        <time>2016-05-03T11:53:58Z</time>
      </trkpt>
      <trkpt lat="44.77497" lon="4.53122">
        <ele>521.14</ele>
        <time>2016-05-03T11:54:08Z</time>
      </trkpt>
      <trkpt lat="44.77486" lon="4.53109">
        <ele>525.82</ele>
        <time>2016-05-03T11:54:19Z</time>
      </trkpt>
      <trkpt lat="44.77481" lon="4.53104">
        <ele>527.33</ele>
        <time>2016-05-03T11:54:30Z</time>
      </trkpt>
      <trkpt lat="44.77473" lon="4.53093">
        <ele>531.18</ele>
        <time>2016-05-03T11:54:41Z</time>
      </trkpt>
      <trkpt lat="44.77469" lon="4.53078">
        <ele>536.25</ele>
        <time>2016-05-03T11:54:52Z</time>
      </trkpt>
      <trkpt lat="44.77459" lon="4.53069">
        <ele>538.76</ele>
        <time>2016-05-03T11:55:07Z</time>
      </trkpt>
      <trkpt lat="44.77456" lon="4.5305">
        <ele>545.24</ele>
        <time>2016-05-03T11:55:17Z</time>
      </trkpt>
      <trkpt lat="44.77443" lon="4.53059">
        <ele>541.48</ele>
        <time>2016-05-03T11:55:30Z</time>
      </trkpt>
      <trkpt lat="44.77437" lon="4.53049">
        <ele>544.51</ele>
        <time>2016-05-03T11:55:41Z</time>
      </trkpt>
      <trkpt lat="44.77437" lon="4.53033">
        <ele>549.9</ele>
        <time>2016-05-03T11:55:55Z</time>
      </trkpt>
      <trkpt lat="44.77432" lon="4.53028">
        <ele>551.21</ele>
        <time>2016-05-03T11:56:08Z</time>
      </trkpt>
      <trkpt lat="44.77422" lon="4.53033">
        <ele>549.75</ele>
        <time>2016-05-03T11:56:19Z</time>
      </trkpt>
      <trkpt lat="44.77411" lon="4.53031">
        <ele>550.81</ele>
        <time>2016-05-03T11:56:35Z</time>
      </trkpt>
      <trkpt lat="44.77416" lon="4.53028">
        <ele>551.52</ele>
        <time>2016-05-03T11:56:48Z</time>
      </trkpt>
      <trkpt lat="44.77402" lon="4.53029">
        <ele>552.52</ele>
        <time>2016-05-03T11:56:58Z</time>
      </trkpt>
      <trkpt lat="44.77404" lon="4.53043">
        <ele>547.68</ele>
        <time>2016-05-03T11:57:11Z</time>
      </trkpt>
      <trkpt lat="44.77408" lon="4.53046">
        <ele>546.28</ele>
        <time>2016-05-03T11:57:24Z</time>
      </trkpt>
      <trkpt lat="44.77403" lon="4.5306">
        <ele>542.29</ele>
        <time>2016-05-03T11:57:34Z</time>
      </trkpt>
      <trkpt lat="44.77395" lon="4.53072">
        <ele>539.96</ele>
        <time>2016-05-03T11:57:45Z</time>
      </trkpt>
      <trkpt lat="44.77385" lon="4.5308">
        <ele>538.93</ele>
        <time>2016-05-03T11:57:59Z</time>
      </trkpt>
      <trkpt lat="44.77373" lon="4.53082">
        <ele>540.38</ele>
        <time>2016-05-03T11:58:09Z</time>
      </trkpt>
      <trkpt lat="44.77371" lon="4.53089">
        <ele>538.36</ele>
        <time>2016-05-03T11:58:22Z</time>
      </trkpt>
      <trkpt lat="44.77354" lon="4.53081">
        <ele>543.77</ele>
        <time>2016-05-03T11:58:32Z</time>
      </trkpt>
      <trkpt lat="44.77347" lon="4.53083">
        <ele>544.11</ele>
        <time>2016-05-03T11:59:32Z</time>
      </trkpt>
      <trkpt lat="44.77328" lon="4.53076">
        <ele>547.5</ele>
        <time>2016-05-03T12:00:03Z</time>
      </trkpt>
      <trkpt lat="44.77311" lon="4.53076">
        <ele>546.97</ele>
        <time>2016-05-03T12:00:14Z</time>
      </trkpt>
      <trkpt lat="44.77289" lon="4.53067">
        <ele>548.31</ele>
        <time>2016-05-03T12:00:25Z</time>
      </trkpt>
      <trkpt lat="44.77274" lon="4.53061">
        <ele>548.93</ele>
        <time>2016-05-03T12:00:36Z</time>
      </trkpt>
      <trkpt lat="44.77266" lon="4.53052">
        <ele>551.43</ele>
        <time>2016-05-03T12:00:46Z</time>
      </trkpt>
      <trkpt lat="44.77259" lon="4.53046">
        <ele>553.2</ele>
        <time>2016-05-03T12:00:57Z</time>
      </trkpt>
      <trkpt lat="44.77251" lon="4.5304">
        <ele>555.28</ele>
        <time>2016-05-03T12:01:41Z</time>
      </trkpt>
      <trkpt lat="44.77232" lon="4.53021">
        <ele>560.76</ele>
        <time>2016-05-03T12:01:52Z</time>
      </trkpt>
      <trkpt lat="44.77226" lon="4.53011">
        <ele>563.39</ele>
        <time>2016-05-03T12:04:13Z</time>
      </trkpt>
      <trkpt lat="44.77197" lon="4.53014">
        <ele>557</ele>
        <time>2016-05-03T12:04:23Z</time>
      </trkpt>
      <trkpt lat="44.77176" lon="4.52997">
        <ele>559.5</ele>
        <time>2016-05-03T12:04:33Z</time>
      </trkpt>
      <trkpt lat="44.77157" lon="4.52984">
        <ele>562.3</ele>
        <time>2016-05-03T12:04:47Z</time>
      </trkpt>
      <trkpt lat="44.77147" lon="4.52973">
        <ele>565.22</ele>
        <time>2016-05-03T12:04:57Z</time>
      </trkpt>
      <trkpt lat="44.77138" lon="4.52959">
        <ele>568.95</ele>
        <time>2016-05-03T12:05:07Z</time>
      </trkpt>
      <trkpt lat="44.77128" lon="4.5295">
        <ele>570.55</ele>
        <time>2016-05-03T12:05:17Z</time>
      </trkpt>
      <trkpt lat="44.77128" lon="4.52936">
        <ele>574.26</ele>
        <time>2016-05-03T12:05:28Z</time>
      </trkpt>
      <trkpt lat="44.77126" lon="4.5293">
        <ele>575.64</ele>
        <time>2016-05-03T12:05:40Z</time>
      </trkpt>
      <trkpt lat="44.77125" lon="4.52919">
        <ele>578.26</ele>
        <time>2016-05-03T12:05:50Z</time>
      </trkpt>
      <trkpt lat="44.77121" lon="4.5291">
        <ele>579.94</ele>
        <time>2016-05-03T12:06:00Z</time>
      </trkpt>
      <trkpt lat="44.77116" lon="4.52911">
        <ele>578.59</ele>
        <time>2016-05-03T12:06:58Z</time>
      </trkpt>
      <trkpt lat="44.77099" lon="4.52908">
        <ele>576.06</ele>
        <time>2016-05-03T12:07:08Z</time>
      </trkpt>
      <trkpt lat="44.77081" lon="4.52882">
        <ele>580.79</ele>
        <time>2016-05-03T12:13:28Z</time>
      </trkpt>
      <trkpt lat="44.77064" lon="4.52928">
        <ele>576.29</ele>
        <time>2016-05-03T12:14:08Z</time>
      </trkpt>
      <trkpt lat="44.77055" lon="4.52947">
        <ele>578.24</ele>
        <time>2016-05-03T12:14:19Z</time>
      </trkpt>
      <trkpt lat="44.77047" lon="4.52966">
        <ele>581.66</ele>
        <time>2016-05-03T12:14:30Z</time>
      </trkpt>
      <trkpt lat="44.77051" lon="4.52971">
        <ele>580.12</ele>
        <time>2016-05-03T12:14:42Z</time>
      </trkpt>
      <trkpt lat="44.7704" lon="4.52988">
        <ele>585.04</ele>
        <time>2016-05-03T12:14:53Z</time>
      </trkpt>
      <trkpt lat="44.77037" lon="4.52998">
        <ele>586.79</ele>
        <time>2016-05-03T12:15:03Z</time>
      </trkpt>
      <trkpt lat="44.77036" lon="4.53012">
        <ele>588.16</ele>
        <time>2016-05-03T12:15:13Z</time>
      </trkpt>
      <trkpt lat="44.7704" lon="4.53015">
        <ele>586.92</ele>
        <time>2016-05-03T12:15:23Z</time>
      </trkpt>
      <trkpt lat="44.77044" lon="4.53027">
        <ele>586.94</ele>
        <time>2016-05-03T12:15:57Z</time>
      </trkpt>
      <trkpt lat="44.77052" lon="4.53063">
        <ele>589.61</ele>
        <time>2016-05-03T12:16:07Z</time>
      </trkpt>
      <trkpt lat="44.7705" lon="4.53086">
        <ele>592.31</ele>
        <time>2016-05-03T12:16:18Z</time>
      </trkpt>
      <trkpt lat="44.77061" lon="4.5308">
        <ele>588.65</ele>
        <time>2016-05-03T12:16:28Z</time>
      </trkpt>
      <trkpt lat="44.77062" lon="4.53095">
        <ele>588.61</ele>
        <time>2016-05-03T12:16:38Z</time>
      </trkpt>
      <trkpt lat="44.77066" lon="4.53099">
        <ele>587.54</ele>
        <time>2016-05-03T12:16:53Z</time>
      </trkpt>
      <trkpt lat="44.77072" lon="4.53109">
        <ele>585.03</ele>
        <time>2016-05-03T12:17:03Z</time>
      </trkpt>
      <trkpt lat="44.77081" lon="4.53119">
        <ele>581.6</ele>
        <time>2016-05-03T12:17:14Z</time>
      </trkpt>
      <trkpt lat="44.77078" lon="4.53136">
        <ele>581.35</ele>
        <time>2016-05-03T12:17:25Z</time>
      </trkpt>
      <trkpt lat="44.77075" lon="4.53149">
        <ele>581.51</ele>
        <time>2016-05-03T12:17:36Z</time>
      </trkpt>
      <trkpt lat="44.7707" lon="4.53158">
        <ele>582.69</ele>
        <time>2016-05-03T12:17:46Z</time>
      </trkpt>
      <trkpt lat="44.77068" lon="4.53168">
        <ele>582.97</ele>
        <time>2016-05-03T12:17:56Z</time>
      </trkpt>
      <trkpt lat="44.77063" lon="4.53181">
        <ele>584.06</ele>
        <time>2016-05-03T12:18:07Z</time>
      </trkpt>
      <trkpt lat="44.77056" lon="4.53191">
        <ele>585.59</ele>
        <time>2016-05-03T12:18:17Z</time>
      </trkpt>
      <trkpt lat="44.77038" lon="4.53193">
        <ele>591.93</ele>
        <time>2016-05-03T12:18:28Z</time>
      </trkpt>
      <trkpt lat="44.77031" lon="4.532">
        <ele>593.79</ele>
        <time>2016-05-03T12:18:58Z</time>
      </trkpt>
      <trkpt lat="44.77009" lon="4.53203">
        <ele>601.41</ele>
        <time>2016-05-03T12:19:09Z</time>
      </trkpt>
      <trkpt lat="44.77005" lon="4.53221">
        <ele>599.92</ele>
        <time>2016-05-03T12:19:46Z</time>
      </trkpt>
      <trkpt lat="44.76994" lon="4.5323">
        <ele>602.16</ele>
        <time>2016-05-03T12:19:56Z</time>
      </trkpt>
      <trkpt lat="44.76976" lon="4.53247">
        <ele>606.45</ele>
        <time>2016-05-03T12:20:47Z</time>
      </trkpt>
      <trkpt lat="44.76998" lon="4.53264">
        <ele>600.41</ele>
        <time>2016-05-03T12:20:58Z</time>
      </trkpt>
      <trkpt lat="44.77007" lon="4.53267">
        <ele>598.24</ele>
        <time>2016-05-03T12:21:08Z</time>
      </trkpt>
      <trkpt lat="44.7702" lon="4.53279">
        <ele>596.24</ele>
        <time>2016-05-03T12:21:19Z</time>
      </trkpt>
      <trkpt lat="44.77031" lon="4.53281">
        <ele>593.64</ele>
        <time>2016-05-03T12:21:29Z</time>
      </trkpt>
      <trkpt lat="44.77037" lon="4.53291">
        <ele>593.9</ele>
        <time>2016-05-03T12:21:39Z</time>
      </trkpt>
      <trkpt lat="44.77042" lon="4.53303">
        <ele>595.73</ele>
        <time>2016-05-03T12:21:50Z</time>
      </trkpt>
      <trkpt lat="44.77059" lon="4.533">
        <ele>591.31</ele>
        <time>2016-05-03T12:22:01Z</time>
      </trkpt>
      <trkpt lat="44.77058" lon="4.53318">
        <ele>596.35</ele>
        <time>2016-05-03T12:22:11Z</time>
      </trkpt>
      <trkpt lat="44.77069" lon="4.53326">
        <ele>596.38</ele>
        <time>2016-05-03T12:22:22Z</time>
      </trkpt>
      <trkpt lat="44.77075" lon="4.53323">
        <ele>595.03</ele>
        <time>2016-05-03T12:22:35Z</time>
      </trkpt>
      <trkpt lat="44.77083" lon="4.53334">
        <ele>597.25</ele>
        <time>2016-05-03T12:22:45Z</time>
      </trkpt>
      <trkpt lat="44.77102" lon="4.53337">
        <ele>598.29</ele>
        <time>2016-05-03T12:22:55Z</time>
      </trkpt>
      <trkpt lat="44.77105" lon="4.53351">
        <ele>602.02</ele>
        <time>2016-05-03T12:23:07Z</time>
      </trkpt>
      <trkpt lat="44.77113" lon="4.5336">
        <ele>605.2</ele>
        <time>2016-05-03T12:23:17Z</time>
      </trkpt>
      <trkpt lat="44.77119" lon="4.53354">
        <ele>604.5</ele>
        <time>2016-05-03T12:23:59Z</time>
      </trkpt>
      <trkpt lat="44.77138" lon="4.53331">
        <ele>601.84</ele>
        <time>2016-05-03T12:24:10Z</time>
      </trkpt>
      <trkpt lat="44.77145" lon="4.53316">
        <ele>598.38</ele>
        <time>2016-05-03T12:24:28Z</time>
      </trkpt>
      <trkpt lat="44.77154" lon="4.53304">
        <ele>595.59</ele>
        <time>2016-05-03T12:24:39Z</time>
      </trkpt>
      <trkpt lat="44.77159" lon="4.53299">
        <ele>594.13</ele>
        <time>2016-05-03T12:24:50Z</time>
      </trkpt>
      <trkpt lat="44.77154" lon="4.53277">
        <ele>587.2</ele>
        <time>2016-05-03T12:25:00Z</time>
      </trkpt>
      <trkpt lat="44.77159" lon="4.53274">
        <ele>586.43</ele>
        <time>2016-05-03T12:25:14Z</time>
      </trkpt>
      <trkpt lat="44.77171" lon="4.53267">
        <ele>583.69</ele>
        <time>2016-05-03T12:25:24Z</time>
      </trkpt>
      <trkpt lat="44.77182" lon="4.53267">
        <ele>582.82</ele>
        <time>2016-05-03T12:25:34Z</time>
      </trkpt>
      <trkpt lat="44.77192" lon="4.53266">
        <ele>581.44</ele>
        <time>2016-05-03T12:25:45Z</time>
      </trkpt>
      <trkpt lat="44.77201" lon="4.53283">
        <ele>586.15</ele>
        <time>2016-05-03T12:25:56Z</time>
      </trkpt>
      <trkpt lat="44.77206" lon="4.53292">
        <ele>588.7</ele>
        <time>2016-05-03T12:26:28Z</time>
      </trkpt>
      <trkpt lat="44.77225" lon="4.53309">
        <ele>592.57</ele>
        <time>2016-05-03T12:26:39Z</time>
      </trkpt>
      <trkpt lat="44.77232" lon="4.53322">
        <ele>596.8</ele>
        <time>2016-05-03T12:26:50Z</time>
      </trkpt>
      <trkpt lat="44.77242" lon="4.53317">
        <ele>592.91</ele>
        <time>2016-05-03T12:27:00Z</time>
      </trkpt>
      <trkpt lat="44.77248" lon="4.53322">
        <ele>593.71</ele>
        <time>2016-05-03T12:27:10Z</time>
      </trkpt>
      <trkpt lat="44.77256" lon="4.53327">
        <ele>594.18</ele>
        <time>2016-05-03T12:27:21Z</time>
      </trkpt>
      <trkpt lat="44.7726" lon="4.53336">
        <ele>596.65</ele>
        <time>2016-05-03T12:27:39Z</time>
      </trkpt>
      <trkpt lat="44.77266" lon="4.53344">
        <ele>598.46</ele>
        <time>2016-05-03T12:27:50Z</time>
      </trkpt>
      <trkpt lat="44.77274" lon="4.53358">
        <ele>602.12</ele>
        <time>2016-05-03T12:28:00Z</time>
      </trkpt>
      <trkpt lat="44.77276" lon="4.53369">
        <ele>605.94</ele>
        <time>2016-05-03T12:28:12Z</time>
      </trkpt>
      <trkpt lat="44.7728" lon="4.53378">
        <ele>608.47</ele>
        <time>2016-05-03T12:28:22Z</time>
      </trkpt>
      <trkpt lat="44.77298" lon="4.53383">
        <ele>604.25</ele>
        <time>2016-05-03T12:28:32Z</time>
      </trkpt>
      <trkpt lat="44.77305" lon="4.53383">
        <ele>601.66</ele>
        <time>2016-05-03T12:28:42Z</time>
      </trkpt>
      <trkpt lat="44.77314" lon="4.5339">
        <ele>601.17</ele>
        <time>2016-05-03T12:28:52Z</time>
      </trkpt>
      <trkpt lat="44.7732" lon="4.53398">
        <ele>602.22</ele>
        <time>2016-05-03T12:29:03Z</time>
      </trkpt>
      <trkpt lat="44.77328" lon="4.53403">
        <ele>601.18</ele>
        <time>2016-05-03T12:29:14Z</time>
      </trkpt>
      <trkpt lat="44.77327" lon="4.53415">
        <ele>605.68</ele>
        <time>2016-05-03T12:30:16Z</time>
      </trkpt>
      <trkpt lat="44.77329" lon="4.53435">
        <ele>611.71</ele>
        <time>2016-05-03T12:30:27Z</time>
      </trkpt>
      <trkpt lat="44.77333" lon="4.53451">
        <ele>615.59</ele>
        <time>2016-05-03T12:30:37Z</time>
      </trkpt>
      <trkpt lat="44.77336" lon="4.53469">
        <ele>619.94</ele>
        <time>2016-05-03T12:30:47Z</time>
      </trkpt>
      <trkpt lat="44.77344" lon="4.5348">
        <ele>620.51</ele>
        <time>2016-05-03T12:30:58Z</time>
      </trkpt>
      <trkpt lat="44.77335" lon="4.53473">
        <ele>621.61</ele>
        <time>2016-05-03T12:31:08Z</time>
      </trkpt>
      <trkpt lat="44.77349" lon="4.53483">
        <ele>619.39</ele>
        <time>2016-05-03T12:31:20Z</time>
      </trkpt>
      <trkpt lat="44.77371" lon="4.53479">
        <ele>610.94</ele>
        <time>2016-05-03T12:31:30Z</time>
      </trkpt>
      <trkpt lat="44.77378" lon="4.53486">
        <ele>610.35</ele>
        <time>2016-05-03T12:31:41Z</time>
      </trkpt>
      <trkpt lat="44.77386" lon="4.53499">
        <ele>610.65</ele>
        <time>2016-05-03T12:31:51Z</time>
      </trkpt>
      <trkpt lat="44.77393" lon="4.53512">
        <ele>610.72</ele>
        <time>2016-05-03T12:32:01Z</time>
      </trkpt>
      <trkpt lat="44.77408" lon="4.53519">
        <ele>606.86</ele>
        <time>2016-05-03T12:32:12Z</time>
      </trkpt>
      <trkpt lat="44.7741" lon="4.53532">
        <ele>608.64</ele>
        <time>2016-05-03T12:32:22Z</time>
      </trkpt>
      <trkpt lat="44.77405" lon="4.53557">
        <ele>614.13</ele>
        <time>2016-05-03T12:32:32Z</time>
      </trkpt>
      <trkpt lat="44.77404" lon="4.53574">
        <ele>615.92</ele>
        <time>2016-05-03T12:32:42Z</time>
      </trkpt>
      <trkpt lat="44.77398" lon="4.53613">
        <ele>617.9</ele>
        <time>2016-05-03T12:32:52Z</time>
      </trkpt>
      <trkpt lat="44.77394" lon="4.53617">
        <ele>618.58</ele>
        <time>2016-05-03T12:33:04Z</time>
      </trkpt>
      <trkpt lat="44.77397" lon="4.53623">
        <ele>617.66</ele>
        <time>2016-05-03T12:33:15Z</time>
      </trkpt>
      <trkpt lat="44.77394" lon="4.53627">
        <ele>617.89</ele>
        <time>2016-05-03T12:33:28Z</time>
      </trkpt>
      <trkpt lat="44.77398" lon="4.53631">
        <ele>616.82</ele>
        <time>2016-05-03T12:33:41Z</time>
      </trkpt>
      <trkpt lat="44.77407" lon="4.53634">
        <ele>614.97</ele>
        <time>2016-05-03T12:33:52Z</time>
      </trkpt>
      <trkpt lat="44.77413" lon="4.53629">
        <ele>614.22</ele>
        <time>2016-05-03T12:34:03Z</time>
      </trkpt>
      <trkpt lat="44.77415" lon="4.53636">
        <ele>613.23</ele>
        <time>2016-05-03T12:34:15Z</time>
      </trkpt>
      <trkpt lat="44.77419" lon="4.53641">
        <ele>611.89</ele>
        <time>2016-05-03T12:34:32Z</time>
      </trkpt>
      <trkpt lat="44.77427" lon="4.53629">
        <ele>610.88</ele>
        <time>2016-05-03T12:34:43Z</time>
      </trkpt>
      <trkpt lat="44.77437" lon="4.53619">
        <ele>608.32</ele>
        <time>2016-05-03T12:34:53Z</time>
      </trkpt>
      <trkpt lat="44.77443" lon="4.53611">
        <ele>606.58</ele>
        <time>2016-05-03T12:35:04Z</time>
      </trkpt>
      <trkpt lat="44.77438" lon="4.53638">
        <ele>606.95</ele>
        <time>2016-05-03T12:35:14Z</time>
      </trkpt>
      <trkpt lat="44.77429" lon="4.53645">
        <ele>609.24</ele>
        <time>2016-05-03T12:35:25Z</time>
      </trkpt>
      <trkpt lat="44.77421" lon="4.53658">
        <ele>609.39</ele>
        <time>2016-05-03T12:35:35Z</time>
      </trkpt>
      <trkpt lat="44.77426" lon="4.53658">
        <ele>608.21</ele>
        <time>2016-05-03T12:35:55Z</time>
      </trkpt>
      <trkpt lat="44.77419" lon="4.5366">
        <ele>609.72</ele>
        <time>2016-05-03T12:36:06Z</time>
      </trkpt>
      <trkpt lat="44.77409" lon="4.5367">
        <ele>609.7</ele>
        <time>2016-05-03T12:36:16Z</time>
      </trkpt>
      <trkpt lat="44.77403" lon="4.53672">
        <ele>610.12</ele>
        <time>2016-05-03T12:36:28Z</time>
      </trkpt>
      <trkpt lat="44.77383" lon="4.53694">
        <ele>604.71</ele>
        <time>2016-05-03T12:37:13Z</time>
      </trkpt>
      <trkpt lat="44.77354" lon="4.53703">
        <ele>600.84</ele>
        <time>2016-05-03T12:37:24Z</time>
      </trkpt>
      <trkpt lat="44.77351" lon="4.53696">
        <ele>603.47</ele>
        <time>2016-05-03T12:37:35Z</time>
      </trkpt>
      <trkpt lat="44.77343" lon="4.53686">
        <ele>606.66</ele>
        <time>2016-05-03T12:37:47Z</time>
      </trkpt>
      <trkpt lat="44.77341" lon="4.53694">
        <ele>604.15</ele>
        <time>2016-05-03T12:38:15Z</time>
      </trkpt>
      <trkpt lat="44.77342" lon="4.53676">
        <ele>610.04</ele>
        <time>2016-05-03T12:38:25Z</time>
      </trkpt>
      <trkpt lat="44.7733" lon="4.53715">
        <ele>597.14</ele>
        <time>2016-05-03T12:38:36Z</time>
      </trkpt>
      <trkpt lat="44.77334" lon="4.53687">
        <ele>606.55</ele>
        <time>2016-05-03T12:38:46Z</time>
      </trkpt>
      <trkpt lat="44.77325" lon="4.53679">
        <ele>609.45</ele>
        <time>2016-05-03T12:38:57Z</time>
      </trkpt>
      <trkpt lat="44.77319" lon="4.53677">
        <ele>610.22</ele>
        <time>2016-05-03T12:39:50Z</time>
      </trkpt>
      <trkpt lat="44.773" lon="4.53689">
        <ele>606.53</ele>
        <time>2016-05-03T12:40:01Z</time>
      </trkpt>
      <trkpt lat="44.77302" lon="4.53698">
        <ele>604.1</ele>
        <time>2016-05-03T12:40:13Z</time>
      </trkpt>
      <trkpt lat="44.77292" lon="4.53692">
        <ele>605.92</ele>
        <time>2016-05-03T12:40:23Z</time>
      </trkpt>
      <trkpt lat="44.77288" lon="4.53702">
        <ele>603.82</ele>
        <time>2016-05-03T12:40:38Z</time>
      </trkpt>
      <trkpt lat="44.77296" lon="4.53708">
        <ele>601.73</ele>
        <time>2016-05-03T12:40:49Z</time>
      </trkpt>
      <trkpt lat="44.77291" lon="4.53702">
        <ele>603.69</ele>
        <time>2016-05-03T12:41:00Z</time>
      </trkpt>
      <trkpt lat="44.7728" lon="4.53704">
        <ele>604.11</ele>
        <time>2016-05-03T12:41:11Z</time>
      </trkpt>
      <trkpt lat="44.77288" lon="4.53709">
        <ele>602.26</ele>
        <time>2016-05-03T12:41:22Z</time>
      </trkpt>
      <trkpt lat="44.77293" lon="4.53722">
        <ele>598.65</ele>
        <time>2016-05-03T12:41:33Z</time>
      </trkpt>
      <trkpt lat="44.77295" lon="4.53729">
        <ele>596.92</ele>
        <time>2016-05-03T12:41:44Z</time>
      </trkpt>
      <trkpt lat="44.77289" lon="4.53721">
        <ele>599.5</ele>
        <time>2016-05-03T12:41:56Z</time>
      </trkpt>
      <trkpt lat="44.77289" lon="4.53706">
        <ele>602.8</ele>
        <time>2016-05-03T12:42:07Z</time>
      </trkpt>
      <trkpt lat="44.77279" lon="4.53708">
        <ele>603.48</ele>
        <time>2016-05-03T12:42:22Z</time>
      </trkpt>
      <trkpt lat="44.77266" lon="4.5371">
        <ele>604.92</ele>
        <time>2016-05-03T12:42:32Z</time>
      </trkpt>
      <trkpt lat="44.77272" lon="4.53707">
        <ele>604.55</ele>
        <time>2016-05-03T12:42:43Z</time>
      </trkpt>
      <trkpt lat="44.77276" lon="4.53714">
        <ele>602.76</ele>
        <time>2016-05-03T12:42:54Z</time>
      </trkpt>
      <trkpt lat="44.77281" lon="4.53728">
        <ele>599.41</ele>
        <time>2016-05-03T12:43:05Z</time>
      </trkpt>
      <trkpt lat="44.77295" lon="4.53735">
        <ele>595.48</ele>
        <time>2016-05-03T12:43:16Z</time>
      </trkpt>
      <trkpt lat="44.77298" lon="4.53754">
        <ele>591.01</ele>
        <time>2016-05-03T12:43:27Z</time>
      </trkpt>
      <trkpt lat="44.77302" lon="4.53768">
        <ele>587.01</ele>
        <time>2016-05-03T12:43:37Z</time>
      </trkpt>
      <trkpt lat="44.77301" lon="4.53783">
        <ele>583.91</ele>
        <time>2016-05-03T12:43:48Z</time>
      </trkpt>
      <trkpt lat="44.77307" lon="4.53784">
        <ele>582.57</ele>
        <time>2016-05-03T12:43:58Z</time>
      </trkpt>
      <trkpt lat="44.7731" lon="4.53798">
        <ele>579.2</ele>
        <time>2016-05-03T12:47:24Z</time>
      </trkpt>
      <trkpt lat="44.77329" lon="4.53837">
        <ele>571.04</ele>
        <time>2016-05-03T12:47:35Z</time>
      </trkpt>
      <trkpt lat="44.77329" lon="4.53864">
        <ele>573.33</ele>
        <time>2016-05-03T12:47:45Z</time>
      </trkpt>
      <trkpt lat="44.77337" lon="4.53878">
        <ele>573.08</ele>
        <time>2016-05-03T12:47:56Z</time>
      </trkpt>
      <trkpt lat="44.77351" lon="4.53884">
        <ele>569.16</ele>
        <time>2016-05-03T12:48:06Z</time>
      </trkpt>
      <trkpt lat="44.77351" lon="4.53895">
        <ele>571.01</ele>
        <time>2016-05-03T12:48:16Z</time>
      </trkpt>
      <trkpt lat="44.7736" lon="4.53897">
        <ele>567.3</ele>
        <time>2016-05-03T12:48:27Z</time>
      </trkpt>
      <trkpt lat="44.77352" lon="4.539">
        <ele>571.15</ele>
        <time>2016-05-03T12:48:45Z</time>
      </trkpt>
      <trkpt lat="44.77373" lon="4.53904">
        <ele>561.63</ele>
        <time>2016-05-03T12:49:54Z</time>
      </trkpt>
      <trkpt lat="44.77397" lon="4.53941">
        <ele>554.81</ele>
        <time>2016-05-03T12:50:05Z</time>
      </trkpt>
      <trkpt lat="44.77406" lon="4.53956">
        <ele>555.11</ele>
        <time>2016-05-03T12:50:16Z</time>
      </trkpt>
      <trkpt lat="44.77416" lon="4.53968">
        <ele>556.06</ele>
        <time>2016-05-03T12:50:26Z</time>
      </trkpt>
      <trkpt lat="44.77414" lon="4.53981">
        <ele>559.98</ele>
        <time>2016-05-03T12:50:37Z</time>
      </trkpt>
      <trkpt lat="44.7741" lon="4.53993">
        <ele>563.49</ele>
        <time>2016-05-03T12:50:48Z</time>
      </trkpt>
      <trkpt lat="44.77408" lon="4.53999">
        <ele>565.12</ele>
        <time>2016-05-03T12:51:00Z</time>
      </trkpt>
      <trkpt lat="44.77404" lon="4.54007">
        <ele>567.31</ele>
        <time>2016-05-03T12:51:11Z</time>
      </trkpt>
      <trkpt lat="44.77402" lon="4.54022">
        <ele>569.99</ele>
        <time>2016-05-03T12:51:22Z</time>
      </trkpt>
      <trkpt lat="44.77403" lon="4.54039">
        <ele>571.99</ele>
        <time>2016-05-03T12:51:34Z</time>
      </trkpt>
      <trkpt lat="44.7741" lon="4.54052">
        <ele>572.9</ele>
        <time>2016-05-03T12:51:44Z</time>
      </trkpt>
      <trkpt lat="44.77402" lon="4.54049">
        <ele>573.51</ele>
        <time>2016-05-03T12:51:54Z</time>
      </trkpt>
      <trkpt lat="44.77398" lon="4.54079">
        <ele>578.55</ele>
        <time>2016-05-03T12:58:29Z</time>
      </trkpt>
      <trkpt lat="44.77389" lon="4.541">
        <ele>583.18</ele>
        <time>2016-05-03T12:58:42Z</time>
      </trkpt>
      <trkpt lat="44.77394" lon="4.54112">
        <ele>584.3</ele>
        <time>2016-05-03T12:58:53Z</time>
      </trkpt>
      <trkpt lat="44.774" lon="4.54121">
        <ele>585.32</ele>
        <time>2016-05-03T12:59:04Z</time>
      </trkpt>
      <trkpt lat="44.77412" lon="4.54129">
        <ele>586.99</ele>
        <time>2016-05-03T12:59:14Z</time>
      </trkpt>
      <trkpt lat="44.77424" lon="4.54137">
        <ele>589.65</ele>
        <time>2016-05-03T12:59:28Z</time>
      </trkpt>
      <trkpt lat="44.77429" lon="4.54148">
        <ele>593.42</ele>
        <time>2016-05-03T13:02:17Z</time>
      </trkpt>
      <trkpt lat="44.77437" lon="4.54155">
        <ele>596.93</ele>
        <time>2016-05-03T13:07:34Z</time>
      </trkpt>
      <trkpt lat="44.77475" lon="4.54149">
        <ele>606.02</ele>
        <time>2016-05-03T13:08:07Z</time>
      </trkpt>
      <trkpt lat="44.77499" lon="4.54162">
        <ele>617.76</ele>
        <time>2016-05-03T13:08:17Z</time>
      </trkpt>
      <trkpt lat="44.77505" lon="4.54149">
        <ele>614.28</ele>
        <time>2016-05-03T13:08:27Z</time>
      </trkpt>
      <trkpt lat="44.77506" lon="4.54161">
        <ele>619.22</ele>
        <time>2016-05-03T13:11:03Z</time>
      </trkpt>
      <trkpt lat="44.775" lon="4.54168">
        <ele>620.67</ele>
        <time>2016-05-03T13:15:54Z</time>
      </trkpt>
      <trkpt lat="44.7752" lon="4.54149">
        <ele>618.9</ele>
        <time>2016-05-03T13:16:05Z</time>
      </trkpt>
      <trkpt lat="44.77534" lon="4.54142">
        <ele>621.02</ele>
        <time>2016-05-03T13:16:15Z</time>
      </trkpt>
      <trkpt lat="44.77546" lon="4.54148">
        <ele>626.36</ele>
        <time>2016-05-03T13:16:26Z</time>
      </trkpt>
      <trkpt lat="44.77555" lon="4.54143">
        <ele>627.17</ele>
        <time>2016-05-03T13:16:36Z</time>
      </trkpt>
      <trkpt lat="44.77559" lon="4.54139">
        <ele>627.16</ele>
        <time>2016-05-03T13:16:47Z</time>
      </trkpt>
      <trkpt lat="44.77566" lon="4.54132">
        <ele>626.71</ele>
        <time>2016-05-03T13:17:00Z</time>
      </trkpt>
      <trkpt lat="44.77577" lon="4.54133">
        <ele>628.96</ele>
        <time>2016-05-03T13:17:10Z</time>
      </trkpt>
      <trkpt lat="44.7759" lon="4.54127">
        <ele>628.54</ele>
        <time>2016-05-03T13:17:21Z</time>
      </trkpt>
      <trkpt lat="44.77592" lon="4.5414">
        <ele>632.43</ele>
        <time>2016-05-03T13:17:31Z</time>
      </trkpt>
      <trkpt lat="44.776" lon="4.54147">
        <ele>634.73</ele>
        <time>2016-05-03T13:18:19Z</time>
      </trkpt>
      <trkpt lat="44.77611" lon="4.5414">
        <ele>632.58</ele>
        <time>2016-05-03T13:18:29Z</time>
      </trkpt>
      <trkpt lat="44.77619" lon="4.54141">
        <ele>632.6</ele>
        <time>2016-05-03T13:18:44Z</time>
      </trkpt>
      <trkpt lat="44.7763" lon="4.54144">
        <ele>632.71</ele>
        <time>2016-05-03T13:19:37Z</time>
      </trkpt>
      <trkpt lat="44.77639" lon="4.54157">
        <ele>636.25</ele>
        <time>2016-05-03T13:19:48Z</time>
      </trkpt>
      <trkpt lat="44.77646" lon="4.54162">
        <ele>636.95</ele>
        <time>2016-05-03T13:19:58Z</time>
      </trkpt>
      <trkpt lat="44.77655" lon="4.54167">
        <ele>637.33</ele>
        <time>2016-05-03T13:22:30Z</time>
      </trkpt>
      <trkpt lat="44.77658" lon="4.54205">
        <ele>645.34</ele>
        <time>2016-05-03T13:24:06Z</time>
      </trkpt>
      <trkpt lat="44.77665" lon="4.54226">
        <ele>648.13</ele>
        <time>2016-05-03T13:24:17Z</time>
      </trkpt>
      <trkpt lat="44.77666" lon="4.54233">
        <ele>649.19</ele>
        <time>2016-05-03T13:27:21Z</time>
      </trkpt>
      <trkpt lat="44.7766" lon="4.54252">
        <ele>654.88</ele>
        <time>2016-05-03T13:27:51Z</time>
      </trkpt>
      <trkpt lat="44.77656" lon="4.54259">
        <ele>658.07</ele>
        <time>2016-05-03T13:28:01Z</time>
      </trkpt>
      <trkpt lat="44.77661" lon="4.5426">
        <ele>657.06</ele>
        <time>2016-05-03T13:28:13Z</time>
      </trkpt>
      <trkpt lat="44.77662" lon="4.54268">
        <ele>659.67</ele>
        <time>2016-05-03T13:29:14Z</time>
      </trkpt>
      <trkpt lat="44.77667" lon="4.5427">
        <ele>659</ele>
        <time>2016-05-03T13:29:25Z</time>
      </trkpt>
      <trkpt lat="44.77667" lon="4.54277">
        <ele>661.19</ele>
        <time>2016-05-03T13:30:06Z</time>
      </trkpt>
      <trkpt lat="44.77681" lon="4.54287">
        <ele>660.67</ele>
        <time>2016-05-03T13:30:16Z</time>
      </trkpt>
      <trkpt lat="44.77687" lon="4.54292">
        <ele>660.5</ele>
        <time>2016-05-03T13:30:27Z</time>
      </trkpt>
      <trkpt lat="44.77693" lon="4.54294">
        <ele>659.21</ele>
        <time>2016-05-03T13:30:38Z</time>
      </trkpt>
      <trkpt lat="44.77696" lon="4.54299">
        <ele>659.67</ele>
        <time>2016-05-03T13:30:52Z</time>
      </trkpt>
      <trkpt lat="44.77705" lon="4.54302">
        <ele>657.75</ele>
        <time>2016-05-03T13:31:02Z</time>
      </trkpt>
      <trkpt lat="44.77713" lon="4.5431">
        <ele>657.03</ele>
        <time>2016-05-03T13:31:13Z</time>
      </trkpt>
      <trkpt lat="44.77716" lon="4.54314">
        <ele>656.89</ele>
        <time>2016-05-03T13:31:26Z</time>
      </trkpt>
      <trkpt lat="44.77718" lon="4.54327">
        <ele>657.86</ele>
        <time>2016-05-03T13:31:37Z</time>
      </trkpt>
      <trkpt lat="44.77723" lon="4.54329">
        <ele>656.51</ele>
        <time>2016-05-03T13:32:05Z</time>
      </trkpt>
      <trkpt lat="44.77729" lon="4.54333">
        <ele>654.73</ele>
        <time>2016-05-03T13:32:17Z</time>
      </trkpt>
      <trkpt lat="44.77726" lon="4.54346">
        <ele>656.82</ele>
        <time>2016-05-03T13:32:41Z</time>
      </trkpt>
      <trkpt lat="44.77731" lon="4.54357">
        <ele>655.7</ele>
        <time>2016-05-03T13:32:51Z</time>
      </trkpt>
      <trkpt lat="44.7773" lon="4.54369">
        <ele>656.47</ele>
        <time>2016-05-03T13:33:12Z</time>
      </trkpt>
      <trkpt lat="44.77736" lon="4.54382">
        <ele>653.7</ele>
        <time>2016-05-03T13:33:41Z</time>
      </trkpt>
      <trkpt lat="44.77735" lon="4.5439">
        <ele>654.19</ele>
        <time>2016-05-03T13:34:08Z</time>
      </trkpt>
      <trkpt lat="44.77736" lon="4.54398">
        <ele>653.52</ele>
        <time>2016-05-03T13:34:19Z</time>
      </trkpt>
      <trkpt lat="44.7774" lon="4.54405">
        <ele>651.24</ele>
        <time>2016-05-03T13:34:58Z</time>
      </trkpt>
      <trkpt lat="44.77746" lon="4.54421">
        <ele>647.64</ele>
        <time>2016-05-03T13:35:09Z</time>
      </trkpt>
      <trkpt lat="44.77738" lon="4.54425">
        <ele>651.84</ele>
        <time>2016-05-03T13:35:49Z</time>
      </trkpt>
      <trkpt lat="44.77736" lon="4.54435">
        <ele>652.05</ele>
        <time>2016-05-03T13:37:21Z</time>
      </trkpt>
      <trkpt lat="44.77733" lon="4.54475">
        <ele>651.84</ele>
        <time>2016-05-03T13:39:02Z</time>
      </trkpt>
      <trkpt lat="44.77734" lon="4.54483">
        <ele>650.95</ele>
        <time>2016-05-03T13:39:42Z</time>
      </trkpt>
      <trkpt lat="44.77737" lon="4.54497">
        <ele>647.89</ele>
        <time>2016-05-03T13:39:52Z</time>
      </trkpt>
      <trkpt lat="44.77741" lon="4.54508">
        <ele>644.05</ele>
        <time>2016-05-03T13:40:06Z</time>
      </trkpt>
      <trkpt lat="44.77743" lon="4.54515">
        <ele>642.38</ele>
        <time>2016-05-03T13:41:36Z</time>
      </trkpt>
      <trkpt lat="44.77745" lon="4.54523">
        <ele>640.24</ele>
        <time>2016-05-03T13:41:47Z</time>
      </trkpt>
      <trkpt lat="44.77747" lon="4.54544">
        <ele>636.27</ele>
        <time>2016-05-03T13:41:58Z</time>
      </trkpt>
      <trkpt lat="44.77746" lon="4.54556">
        <ele>635.11</ele>
        <time>2016-05-03T13:42:09Z</time>
      </trkpt>
      <trkpt lat="44.77741" lon="4.54563">
        <ele>637.02</ele>
        <time>2016-05-03T13:42:19Z</time>
      </trkpt>
      <trkpt lat="44.77734" lon="4.54579">
        <ele>638.72</ele>
        <time>2016-05-03T13:42:30Z</time>
      </trkpt>
      <trkpt lat="44.77735" lon="4.54588">
        <ele>637.71</ele>
        <time>2016-05-03T13:42:40Z</time>
      </trkpt>
      <trkpt lat="44.77729" lon="4.54598">
        <ele>639.99</ele>
        <time>2016-05-03T13:43:07Z</time>
      </trkpt>
      <trkpt lat="44.7772" lon="4.5461">
        <ele>643.19</ele>
        <time>2016-05-03T13:43:18Z</time>
      </trkpt>
      <trkpt lat="44.77713" lon="4.54621">
        <ele>646.1</ele>
        <time>2016-05-03T13:43:28Z</time>
      </trkpt>
      <trkpt lat="44.77705" lon="4.54631">
        <ele>649.7</ele>
        <time>2016-05-03T13:43:40Z</time>
      </trkpt>
      <trkpt lat="44.77703" lon="4.5464">
        <ele>650.17</ele>
        <time>2016-05-03T13:44:02Z</time>
      </trkpt>
      <trkpt lat="44.77707" lon="4.5466">
        <ele>647.82</ele>
        <time>2016-05-03T13:44:38Z</time>
      </trkpt>
      <trkpt lat="44.77717" lon="4.54681">
        <ele>645.92</ele>
        <time>2016-05-03T13:44:48Z</time>
      </trkpt>
      <trkpt lat="44.77717" lon="4.54696">
        <ele>649.43</ele>
        <time>2016-05-03T13:44:59Z</time>
      </trkpt>
      <trkpt lat="44.77721" lon="4.547">
        <ele>649</ele>
        <time>2016-05-03T13:45:21Z</time>
      </trkpt>
      <trkpt lat="44.77731" lon="4.54722">
        <ele>652.26</ele>
        <time>2016-05-03T13:45:31Z</time>
      </trkpt>
      <trkpt lat="44.77745" lon="4.54728">
        <ele>649.32</ele>
        <time>2016-05-03T13:45:41Z</time>
      </trkpt>
      <trkpt lat="44.77751" lon="4.54735">
        <ele>649.68</ele>
        <time>2016-05-03T13:45:52Z</time>
      </trkpt>
      <trkpt lat="44.7776" lon="4.54741">
        <ele>648.46</ele>
        <time>2016-05-03T13:46:03Z</time>
      </trkpt>
      <trkpt lat="44.77772" lon="4.54746">
        <ele>646.29</ele>
        <time>2016-05-03T13:46:14Z</time>
      </trkpt>
      <trkpt lat="44.77778" lon="4.5475">
        <ele>645.07</ele>
        <time>2016-05-03T13:46:25Z</time>
      </trkpt>
      <trkpt lat="44.77792" lon="4.54763">
        <ele>644.76</ele>
        <time>2016-05-03T13:46:36Z</time>
      </trkpt>
      <trkpt lat="44.77803" lon="4.54764">
        <ele>641.3</ele>
        <time>2016-05-03T13:46:46Z</time>
      </trkpt>
      <trkpt lat="44.77814" lon="4.54776">
        <ele>642.05</ele>
        <time>2016-05-03T13:46:57Z</time>
      </trkpt>
      <trkpt lat="44.7782" lon="4.54779">
        <ele>641.79</ele>
        <time>2016-05-03T13:47:16Z</time>
      </trkpt>
      <trkpt lat="44.77824" lon="4.54787">
        <ele>643.33</ele>
        <time>2016-05-03T13:47:27Z</time>
      </trkpt>
      <trkpt lat="44.77835" lon="4.54793">
        <ele>642.35</ele>
        <time>2016-05-03T13:47:37Z</time>
      </trkpt>
      <trkpt lat="44.77844" lon="4.54791">
        <ele>639.77</ele>
        <time>2016-05-03T13:47:48Z</time>
      </trkpt>
      <trkpt lat="44.77856" lon="4.54806">
        <ele>641.93</ele>
        <time>2016-05-03T13:47:58Z</time>
      </trkpt>
      <trkpt lat="44.77861" lon="4.54805">
        <ele>640.53</ele>
        <time>2016-05-03T13:48:08Z</time>
      </trkpt>
      <trkpt lat="44.77866" lon="4.54799">
        <ele>637.82</ele>
        <time>2016-05-03T13:48:19Z</time>
      </trkpt>
      <trkpt lat="44.77875" lon="4.54803">
        <ele>637.15</ele>
        <time>2016-05-03T13:48:33Z</time>
      </trkpt>
      <trkpt lat="44.77886" lon="4.54802">
        <ele>634.43</ele>
        <time>2016-05-03T13:49:21Z</time>
      </trkpt>
      <trkpt lat="44.77897" lon="4.54822">
        <ele>634.85</ele>
        <time>2016-05-03T13:49:34Z</time>
      </trkpt>
      <trkpt lat="44.77909" lon="4.54823">
        <ele>630.68</ele>
        <time>2016-05-03T13:49:57Z</time>
      </trkpt>
      <trkpt lat="44.77919" lon="4.54834">
        <ele>628.01</ele>
        <time>2016-05-03T13:50:07Z</time>
      </trkpt>
      <trkpt lat="44.77934" lon="4.54838">
        <ele>621.27</ele>
        <time>2016-05-03T13:50:18Z</time>
      </trkpt>
      <trkpt lat="44.77937" lon="4.54851">
        <ele>621.11</ele>
        <time>2016-05-03T13:50:28Z</time>
      </trkpt>
      <trkpt lat="44.77938" lon="4.54859">
        <ele>621.17</ele>
        <time>2016-05-03T13:50:38Z</time>
      </trkpt>
      <trkpt lat="44.77943" lon="4.54873">
        <ele>620.31</ele>
        <time>2016-05-03T13:50:48Z</time>
      </trkpt>
      <trkpt lat="44.77958" lon="4.54881">
        <ele>613.03</ele>
        <time>2016-05-03T13:50:59Z</time>
      </trkpt>
      <trkpt lat="44.77987" lon="4.54889">
        <ele>601.66</ele>
        <time>2016-05-03T13:51:09Z</time>
      </trkpt>
      <trkpt lat="44.77983" lon="4.54884">
        <ele>601.81</ele>
        <time>2016-05-03T13:51:19Z</time>
      </trkpt>
      <trkpt lat="44.77969" lon="4.54899">
        <ele>611.36</ele>
        <time>2016-05-03T13:51:29Z</time>
      </trkpt>
      <trkpt lat="44.77981" lon="4.5492">
        <ele>612.42</ele>
        <time>2016-05-03T13:51:40Z</time>
      </trkpt>
      <trkpt lat="44.77985" lon="4.54915">
        <ele>609.89</ele>
        <time>2016-05-03T13:51:55Z</time>
      </trkpt>
      <trkpt lat="44.77997" lon="4.54923">
        <ele>609.89</ele>
        <time>2016-05-03T13:52:05Z</time>
      </trkpt>
      <trkpt lat="44.78003" lon="4.54921">
        <ele>608.43</ele>
        <time>2016-05-03T13:52:16Z</time>
      </trkpt>
      <trkpt lat="44.78014" lon="4.54923">
        <ele>608.77</ele>
        <time>2016-05-03T13:52:26Z</time>
      </trkpt>
      <trkpt lat="44.78026" lon="4.54933">
        <ele>614.12</ele>
        <time>2016-05-03T13:52:37Z</time>
      </trkpt>
      <trkpt lat="44.78034" lon="4.54926">
        <ele>612.49</ele>
        <time>2016-05-03T13:52:47Z</time>
      </trkpt>
      <trkpt lat="44.78043" lon="4.54923">
        <ele>613.23</ele>
        <time>2016-05-03T13:52:58Z</time>
      </trkpt>
      <trkpt lat="44.78054" lon="4.54925">
        <ele>616.42</ele>
        <time>2016-05-03T13:53:08Z</time>
      </trkpt>
      <trkpt lat="44.78057" lon="4.54911">
        <ele>611.98</ele>
        <time>2016-05-03T13:53:19Z</time>
      </trkpt>
      <trkpt lat="44.78063" lon="4.54901">
        <ele>609.94</ele>
        <time>2016-05-03T13:53:29Z</time>
      </trkpt>
      <trkpt lat="44.78078" lon="4.54902">
        <ele>612.76</ele>
        <time>2016-05-03T13:53:39Z</time>
      </trkpt>
      <trkpt lat="44.78082" lon="4.54895">
        <ele>610.93</ele>
        <time>2016-05-03T13:54:42Z</time>
      </trkpt>
      <trkpt lat="44.78088" lon="4.54887">
        <ele>608.56</ele>
        <time>2016-05-03T13:55:24Z</time>
      </trkpt>
      <trkpt lat="44.78109" lon="4.54878">
        <ele>607.9</ele>
        <time>2016-05-03T13:55:35Z</time>
      </trkpt>
      <trkpt lat="44.78125" lon="4.5488">
        <ele>610.03</ele>
        <time>2016-05-03T13:55:46Z</time>
      </trkpt>
      <trkpt lat="44.7814" lon="4.54875">
        <ele>609.97</ele>
        <time>2016-05-03T13:55:56Z</time>
      </trkpt>
      <trkpt lat="44.78142" lon="4.54866">
        <ele>607.92</ele>
        <time>2016-05-03T13:57:20Z</time>
      </trkpt>
      <trkpt lat="44.78136" lon="4.54873">
        <ele>609.16</ele>
        <time>2016-05-03T14:00:15Z</time>
      </trkpt>
      <trkpt lat="44.78113" lon="4.54887">
        <ele>610.97</ele>
        <time>2016-05-03T14:00:26Z</time>
      </trkpt>
      <trkpt lat="44.78107" lon="4.54892">
        <ele>611.88</ele>
        <time>2016-05-03T14:00:36Z</time>
      </trkpt>
      <trkpt lat="44.78102" lon="4.54905">
        <ele>615.46</ele>
        <time>2016-05-03T14:00:47Z</time>
      </trkpt>
      <trkpt lat="44.781" lon="4.54913">
        <ele>617.74</ele>
        <time>2016-05-03T14:01:21Z</time>
      </trkpt>
      <trkpt lat="44.78091" lon="4.54924">
        <ele>620.67</ele>
        <time>2016-05-03T14:01:32Z</time>
      </trkpt>
      <trkpt lat="44.78082" lon="4.54937">
        <ele>624.86</ele>
        <time>2016-05-03T14:01:42Z</time>
      </trkpt>
      <trkpt lat="44.78075" lon="4.54938">
        <ele>624.79</ele>
        <time>2016-05-03T14:01:52Z</time>
      </trkpt>
      <trkpt lat="44.78071" lon="4.54956">
        <ele>631.2</ele>
        <time>2016-05-03T14:02:03Z</time>
      </trkpt>
      <trkpt lat="44.78065" lon="4.5496">
        <ele>632.42</ele>
        <time>2016-05-03T14:02:14Z</time>
      </trkpt>
      <trkpt lat="44.78062" lon="4.54966">
        <ele>634.51</ele>
        <time>2016-05-03T14:02:25Z</time>
      </trkpt>
      <trkpt lat="44.78055" lon="4.5497">
        <ele>635.35</ele>
        <time>2016-05-03T14:02:35Z</time>
      </trkpt>
      <trkpt lat="44.78046" lon="4.54975">
        <ele>636.18</ele>
        <time>2016-05-03T14:02:45Z</time>
      </trkpt>
      <trkpt lat="44.78048" lon="4.54988">
        <ele>641.67</ele>
        <time>2016-05-03T14:02:56Z</time>
      </trkpt>
      <trkpt lat="44.78042" lon="4.54994">
        <ele>643.49</ele>
        <time>2016-05-03T14:03:06Z</time>
      </trkpt>
      <trkpt lat="44.78031" lon="4.55002">
        <ele>645.81</ele>
        <time>2016-05-03T14:03:17Z</time>
      </trkpt>
      <trkpt lat="44.78025" lon="4.54996">
        <ele>643.21</ele>
        <time>2016-05-03T14:03:27Z</time>
      </trkpt>
      <trkpt lat="44.78014" lon="4.54994">
        <ele>642.44</ele>
        <time>2016-05-03T14:03:37Z</time>
      </trkpt>
      <trkpt lat="44.78007" lon="4.54991">
        <ele>641.36</ele>
        <time>2016-05-03T14:03:48Z</time>
      </trkpt>
      <trkpt lat="44.77998" lon="4.54984">
        <ele>638.71</ele>
        <time>2016-05-03T14:03:58Z</time>
      </trkpt>
      <trkpt lat="44.77988" lon="4.54987">
        <ele>641.84</ele>
        <time>2016-05-03T14:04:09Z</time>
      </trkpt>
      <trkpt lat="44.77983" lon="4.54983">
        <ele>640.95</ele>
        <time>2016-05-03T14:04:19Z</time>
      </trkpt>
      <trkpt lat="44.77967" lon="4.54983">
        <ele>643.85</ele>
        <time>2016-05-03T14:04:30Z</time>
      </trkpt>
      <trkpt lat="44.77957" lon="4.5498">
        <ele>645.02</ele>
        <time>2016-05-03T14:04:40Z</time>
      </trkpt>
      <trkpt lat="44.77945" lon="4.54977">
        <ele>647.59</ele>
        <time>2016-05-03T14:04:51Z</time>
      </trkpt>
      <trkpt lat="44.77937" lon="4.54976">
        <ele>649.68</ele>
        <time>2016-05-03T14:05:01Z</time>
      </trkpt>
      <trkpt lat="44.77929" lon="4.54972">
        <ele>651.19</ele>
        <time>2016-05-03T14:05:12Z</time>
      </trkpt>
      <trkpt lat="44.77918" lon="4.54968">
        <ele>653.72</ele>
        <time>2016-05-03T14:05:23Z</time>
      </trkpt>
      <trkpt lat="44.77911" lon="4.54961">
        <ele>654.95</ele>
        <time>2016-05-03T14:05:34Z</time>
      </trkpt>
      <trkpt lat="44.77902" lon="4.5495">
        <ele>656.37</ele>
        <time>2016-05-03T14:05:44Z</time>
      </trkpt>
      <trkpt lat="44.77898" lon="4.54934">
        <ele>654.44</ele>
        <time>2016-05-03T14:05:55Z</time>
      </trkpt>
      <trkpt lat="44.77894" lon="4.5492">
        <ele>653.37</ele>
        <time>2016-05-03T14:06:06Z</time>
      </trkpt>
      <trkpt lat="44.77878" lon="4.54907">
        <ele>659.86</ele>
        <time>2016-05-03T14:06:16Z</time>
      </trkpt>
      <trkpt lat="44.77882" lon="4.54897">
        <ele>655.83</ele>
        <time>2016-05-03T14:06:27Z</time>
      </trkpt>
      <trkpt lat="44.77865" lon="4.54884">
        <ele>661.33</ele>
        <time>2016-05-03T14:06:37Z</time>
      </trkpt>
      <trkpt lat="44.7786" lon="4.54868">
        <ele>659.41</ele>
        <time>2016-05-03T14:06:48Z</time>
      </trkpt>
      <trkpt lat="44.77849" lon="4.54861">
        <ele>661.7</ele>
        <time>2016-05-03T14:06:58Z</time>
      </trkpt>
      <trkpt lat="44.77836" lon="4.54856">
        <ele>664.32</ele>
        <time>2016-05-03T14:07:09Z</time>
      </trkpt>
      <trkpt lat="44.77828" lon="4.54857">
        <ele>667.09</ele>
        <time>2016-05-03T14:07:19Z</time>
      </trkpt>
      <trkpt lat="44.77819" lon="4.54858">
        <ele>670.07</ele>
        <time>2016-05-03T14:07:30Z</time>
      </trkpt>
      <trkpt lat="44.77816" lon="4.54869">
        <ele>675.1</ele>
        <time>2016-05-03T14:07:40Z</time>
      </trkpt>
      <trkpt lat="44.77827" lon="4.54872">
        <ele>672.71</ele>
        <time>2016-05-03T14:07:50Z</time>
      </trkpt>
      <trkpt lat="44.77843" lon="4.54879">
        <ele>669.5</ele>
        <time>2016-05-03T14:08:01Z</time>
      </trkpt>
      <trkpt lat="44.77853" lon="4.54886">
        <ele>667.85</ele>
        <time>2016-05-03T14:08:12Z</time>
      </trkpt>
      <trkpt lat="44.77856" lon="4.549">
        <ele>670.27</ele>
        <time>2016-05-03T14:08:23Z</time>
      </trkpt>
      <trkpt lat="44.77868" lon="4.54909">
        <ele>666.1</ele>
        <time>2016-05-03T14:08:34Z</time>
      </trkpt>
      <trkpt lat="44.77867" lon="4.54925">
        <ele>670.59</ele>
        <time>2016-05-03T14:08:44Z</time>
      </trkpt>
      <trkpt lat="44.77864" lon="4.54956">
        <ele>678.02</ele>
        <time>2016-05-03T14:08:54Z</time>
      </trkpt>
      <trkpt lat="44.77862" lon="4.54962">
        <ele>679.93</ele>
        <time>2016-05-03T14:09:05Z</time>
      </trkpt>
      <trkpt lat="44.77871" lon="4.54979">
        <ele>678.62</ele>
        <time>2016-05-03T14:09:15Z</time>
      </trkpt>
      <trkpt lat="44.77871" lon="4.55003">
        <ele>683.62</ele>
        <time>2016-05-03T14:09:25Z</time>
      </trkpt>
      <trkpt lat="44.77879" lon="4.55017">
        <ele>683.19</ele>
        <time>2016-05-03T14:09:36Z</time>
      </trkpt>
      <trkpt lat="44.77889" lon="4.55034">
        <ele>683.2</ele>
        <time>2016-05-03T14:09:46Z</time>
      </trkpt>
      <trkpt lat="44.779" lon="4.55048">
        <ele>683.88</ele>
        <time>2016-05-03T14:09:56Z</time>
      </trkpt>
      <trkpt lat="44.7792" lon="4.55056">
        <ele>681.17</ele>
        <time>2016-05-03T14:10:06Z</time>
      </trkpt>
      <trkpt lat="44.7793" lon="4.55059">
        <ele>680.19</ele>
        <time>2016-05-03T14:10:17Z</time>
      </trkpt>
      <trkpt lat="44.77942" lon="4.55063">
        <ele>679.9</ele>
        <time>2016-05-03T14:10:28Z</time>
      </trkpt>
      <trkpt lat="44.77958" lon="4.55067">
        <ele>679.24</ele>
        <time>2016-05-03T14:10:38Z</time>
      </trkpt>
      <trkpt lat="44.77973" lon="4.55075">
        <ele>680.29</ele>
        <time>2016-05-03T14:10:49Z</time>
      </trkpt>
      <trkpt lat="44.77985" lon="4.55083">
        <ele>680.93</ele>
        <time>2016-05-03T14:11:00Z</time>
      </trkpt>
      <trkpt lat="44.77994" lon="4.5509">
        <ele>680.91</ele>
        <time>2016-05-03T14:11:10Z</time>
      </trkpt>
      <trkpt lat="44.78002" lon="4.55098">
        <ele>680.66</ele>
        <time>2016-05-03T14:11:21Z</time>
      </trkpt>
      <trkpt lat="44.77997" lon="4.55102">
        <ele>682.5</ele>
        <time>2016-05-03T14:14:03Z</time>
      </trkpt>
      <trkpt lat="44.78001" lon="4.55107">
        <ele>682.41</ele>
        <time>2016-05-03T14:15:19Z</time>
      </trkpt>
      <trkpt lat="44.78002" lon="4.55123">
        <ele>684.07</ele>
        <time>2016-05-03T14:15:29Z</time>
      </trkpt>
      <trkpt lat="44.78" lon="4.55137">
        <ele>686.12</ele>
        <time>2016-05-03T14:15:40Z</time>
      </trkpt>
      <trkpt lat="44.77995" lon="4.55154">
        <ele>689</ele>
        <time>2016-05-03T14:15:51Z</time>
      </trkpt>
      <trkpt lat="44.77992" lon="4.55165">
        <ele>691.5</ele>
        <time>2016-05-03T14:16:01Z</time>
      </trkpt>
      <trkpt lat="44.77992" lon="4.55177">
        <ele>692.93</ele>
        <time>2016-05-03T14:16:12Z</time>
      </trkpt>
      <trkpt lat="44.77992" lon="4.55191">
        <ele>694.97</ele>
        <time>2016-05-03T14:16:22Z</time>
      </trkpt>
      <trkpt lat="44.7799" lon="4.55207">
        <ele>697.57</ele>
        <time>2016-05-03T14:16:33Z</time>
      </trkpt>
      <trkpt lat="44.77989" lon="4.55221">
        <ele>699.74</ele>
        <time>2016-05-03T14:16:44Z</time>
      </trkpt>
      <trkpt lat="44.77986" lon="4.55235">
        <ele>702.12</ele>
        <time>2016-05-03T14:16:55Z</time>
      </trkpt>
      <trkpt lat="44.77987" lon="4.55247">
        <ele>702.86</ele>
        <time>2016-05-03T14:17:06Z</time>
      </trkpt>
      <trkpt lat="44.77986" lon="4.55255">
        <ele>703.66</ele>
        <time>2016-05-03T14:18:01Z</time>
      </trkpt>
      <trkpt lat="44.77987" lon="4.55264">
        <ele>704.13</ele>
        <time>2016-05-03T14:18:11Z</time>
      </trkpt>
      <trkpt lat="44.77987" lon="4.55276">
        <ele>704.5</ele>
        <time>2016-05-03T14:18:27Z</time>
      </trkpt>
      <trkpt lat="44.77988" lon="4.55284">
        <ele>704.51</ele>
        <time>2016-05-03T14:18:57Z</time>
      </trkpt>
      <trkpt lat="44.77986" lon="4.5529">
        <ele>705.02</ele>
        <time>2016-05-03T14:19:10Z</time>
      </trkpt>
      <trkpt lat="44.77982" lon="4.55307">
        <ele>706.16</ele>
        <time>2016-05-03T14:19:21Z</time>
      </trkpt>
      <trkpt lat="44.77981" lon="4.55322">
        <ele>706.57</ele>
        <time>2016-05-03T14:19:31Z</time>
      </trkpt>
      <trkpt lat="44.77975" lon="4.55336">
        <ele>708.11</ele>
        <time>2016-05-03T14:19:42Z</time>
      </trkpt>
      <trkpt lat="44.77977" lon="4.55352">
        <ele>708.35</ele>
        <time>2016-05-03T14:19:53Z</time>
      </trkpt>
      <trkpt lat="44.77975" lon="4.55363">
        <ele>709.22</ele>
        <time>2016-05-03T14:20:03Z</time>
      </trkpt>
      <trkpt lat="44.7797" lon="4.5537">
        <ele>710.58</ele>
        <time>2016-05-03T14:20:15Z</time>
      </trkpt>
      <trkpt lat="44.77968" lon="4.55379">
        <ele>711.46</ele>
        <time>2016-05-03T14:22:19Z</time>
      </trkpt>
      <trkpt lat="44.77961" lon="4.55397">
        <ele>713.83</ele>
        <time>2016-05-03T14:22:29Z</time>
      </trkpt>
      <trkpt lat="44.77959" lon="4.55409">
        <ele>715.07</ele>
        <time>2016-05-03T14:22:40Z</time>
      </trkpt>
      <trkpt lat="44.77956" lon="4.55424">
        <ele>716.45</ele>
        <time>2016-05-03T14:22:51Z</time>
      </trkpt>
      <trkpt lat="44.7795" lon="4.55439">
        <ele>718.91</ele>
        <time>2016-05-03T14:23:01Z</time>
      </trkpt>
      <trkpt lat="44.77951" lon="4.55453">
        <ele>719.75</ele>
        <time>2016-05-03T14:23:12Z</time>
      </trkpt>
      <trkpt lat="44.77948" lon="4.55468">
        <ele>721.63</ele>
        <time>2016-05-03T14:23:23Z</time>
      </trkpt>
      <trkpt lat="44.77947" lon="4.5548">
        <ele>722.51</ele>
        <time>2016-05-03T14:23:34Z</time>
      </trkpt>
      <trkpt lat="44.77945" lon="4.55495">
        <ele>723.81</ele>
        <time>2016-05-03T14:23:45Z</time>
      </trkpt>
      <trkpt lat="44.77946" lon="4.55505">
        <ele>723.88</ele>
        <time>2016-05-03T14:23:55Z</time>
      </trkpt>
      <trkpt lat="44.77945" lon="4.55518">
        <ele>724.4</ele>
        <time>2016-05-03T14:24:06Z</time>
      </trkpt>
      <trkpt lat="44.77949" lon="4.5553">
        <ele>723.69</ele>
        <time>2016-05-03T14:24:16Z</time>
      </trkpt>
      <trkpt lat="44.77952" lon="4.55543">
        <ele>723.35</ele>
        <time>2016-05-03T14:24:26Z</time>
      </trkpt>
      <trkpt lat="44.77952" lon="4.5556">
        <ele>723.35</ele>
        <time>2016-05-03T14:24:36Z</time>
      </trkpt>
      <trkpt lat="44.77949" lon="4.55582">
        <ele>724.22</ele>
        <time>2016-05-03T14:24:47Z</time>
      </trkpt>
      <trkpt lat="44.77943" lon="4.55594">
        <ele>725.23</ele>
        <time>2016-05-03T14:24:57Z</time>
      </trkpt>
      <trkpt lat="44.77936" lon="4.55604">
        <ele>726.18</ele>
        <time>2016-05-03T14:25:22Z</time>
      </trkpt>
      <trkpt lat="44.77929" lon="4.55611">
        <ele>726.93</ele>
        <time>2016-05-03T14:25:32Z</time>
      </trkpt>
      <trkpt lat="44.77915" lon="4.55625">
        <ele>727.68</ele>
        <time>2016-05-03T14:25:43Z</time>
      </trkpt>
      <trkpt lat="44.77905" lon="4.55636">
        <ele>727.44</ele>
        <time>2016-05-03T14:25:53Z</time>
      </trkpt>
      <trkpt lat="44.77898" lon="4.55655">
        <ele>726.22</ele>
        <time>2016-05-03T14:26:04Z</time>
      </trkpt>
      <trkpt lat="44.77891" lon="4.5567">
        <ele>724.79</ele>
        <time>2016-05-03T14:26:15Z</time>
      </trkpt>
      <trkpt lat="44.77894" lon="4.5569">
        <ele>723.74</ele>
        <time>2016-05-03T14:26:25Z</time>
      </trkpt>
      <trkpt lat="44.77896" lon="4.55705">
        <ele>722.97</ele>
        <time>2016-05-03T14:26:35Z</time>
      </trkpt>
      <trkpt lat="44.77897" lon="4.55712">
        <ele>722.68</ele>
        <time>2016-05-03T14:26:46Z</time>
      </trkpt>
      <trkpt lat="44.77899" lon="4.55732">
        <ele>721.69</ele>
        <time>2016-05-03T14:26:57Z</time>
      </trkpt>
      <trkpt lat="44.77905" lon="4.55748">
        <ele>721.79</ele>
        <time>2016-05-03T14:27:08Z</time>
      </trkpt>
      <trkpt lat="44.77904" lon="4.55768">
        <ele>720.89</ele>
        <time>2016-05-03T14:27:19Z</time>
      </trkpt>
      <trkpt lat="44.77904" lon="4.55787">
        <ele>720.16</ele>
        <time>2016-05-03T14:27:30Z</time>
      </trkpt>
      <trkpt lat="44.77901" lon="4.55805">
        <ele>718.87</ele>
        <time>2016-05-03T14:27:41Z</time>
      </trkpt>
      <trkpt lat="44.77897" lon="4.55821">
        <ele>717.3</ele>
        <time>2016-05-03T14:27:51Z</time>
      </trkpt>
      <trkpt lat="44.77894" lon="4.55836">
        <ele>716.15</ele>
        <time>2016-05-03T14:28:01Z</time>
      </trkpt>
      <trkpt lat="44.77891" lon="4.55849">
        <ele>714.78</ele>
        <time>2016-05-03T14:28:11Z</time>
      </trkpt>
      <trkpt lat="44.77885" lon="4.55865">
        <ele>712.46</ele>
        <time>2016-05-03T14:28:21Z</time>
      </trkpt>
      <trkpt lat="44.7788" lon="4.55879">
        <ele>710.58</ele>
        <time>2016-05-03T14:28:32Z</time>
      </trkpt>
      <trkpt lat="44.7788" lon="4.55896">
        <ele>710.81</ele>
        <time>2016-05-03T14:28:43Z</time>
      </trkpt>
      <trkpt lat="44.7788" lon="4.55907">
        <ele>710.97</ele>
        <time>2016-05-03T14:28:53Z</time>
      </trkpt>
      <trkpt lat="44.77879" lon="4.55925">
        <ele>711.08</ele>
        <time>2016-05-03T14:29:04Z</time>
      </trkpt>
      <trkpt lat="44.77877" lon="4.55938">
        <ele>710.32</ele>
        <time>2016-05-03T14:29:14Z</time>
      </trkpt>
      <trkpt lat="44.77876" lon="4.55952">
        <ele>710.11</ele>
        <time>2016-05-03T14:29:24Z</time>
      </trkpt>
      <trkpt lat="44.77877" lon="4.55967">
        <ele>710.63</ele>
        <time>2016-05-03T14:29:34Z</time>
      </trkpt>
      <trkpt lat="44.77872" lon="4.55981">
        <ele>709.28</ele>
        <time>2016-05-03T14:29:45Z</time>
      </trkpt>
      <trkpt lat="44.77875" lon="4.56">
        <ele>710.74</ele>
        <time>2016-05-03T14:29:56Z</time>
      </trkpt>
      <trkpt lat="44.77873" lon="4.56019">
        <ele>710.25</ele>
        <time>2016-05-03T14:30:07Z</time>
      </trkpt>
      <trkpt lat="44.77867" lon="4.56038">
        <ele>707.82</ele>
        <time>2016-05-03T14:30:18Z</time>
      </trkpt>
      <trkpt lat="44.77867" lon="4.5605">
        <ele>708</ele>
        <time>2016-05-03T14:30:28Z</time>
      </trkpt>
      <trkpt lat="44.77864" lon="4.56062">
        <ele>706.97</ele>
        <time>2016-05-03T14:30:38Z</time>
      </trkpt>
      <trkpt lat="44.77863" lon="4.56079">
        <ele>707.03</ele>
        <time>2016-05-03T14:30:48Z</time>
      </trkpt>
      <trkpt lat="44.77856" lon="4.56093">
        <ele>705.32</ele>
        <time>2016-05-03T14:30:59Z</time>
      </trkpt>
      <trkpt lat="44.7785" lon="4.56105">
        <ele>703.61</ele>
        <time>2016-05-03T14:31:09Z</time>
      </trkpt>
      <trkpt lat="44.77846" lon="4.56118">
        <ele>703.28</ele>
        <time>2016-05-03T14:31:20Z</time>
      </trkpt>
      <trkpt lat="44.77837" lon="4.5613">
        <ele>701.54</ele>
        <time>2016-05-03T14:31:30Z</time>
      </trkpt>
      <trkpt lat="44.77828" lon="4.56142">
        <ele>700.32</ele>
        <time>2016-05-03T14:31:41Z</time>
      </trkpt>
      <trkpt lat="44.77825" lon="4.5615">
        <ele>700.14</ele>
        <time>2016-05-03T14:31:51Z</time>
      </trkpt>
      <trkpt lat="44.77811" lon="4.56152">
        <ele>696.91</ele>
        <time>2016-05-03T14:32:02Z</time>
      </trkpt>
      <trkpt lat="44.77802" lon="4.56151">
        <ele>694.42</ele>
        <time>2016-05-03T14:32:12Z</time>
      </trkpt>
      <trkpt lat="44.77791" lon="4.56148">
        <ele>691.05</ele>
        <time>2016-05-03T14:32:23Z</time>
      </trkpt>
      <trkpt lat="44.77784" lon="4.5615">
        <ele>689.58</ele>
        <time>2016-05-03T14:32:33Z</time>
      </trkpt>
      <trkpt lat="44.77774" lon="4.56159">
        <ele>687.76</ele>
        <time>2016-05-03T14:32:44Z</time>
      </trkpt>
      <trkpt lat="44.77765" lon="4.56164">
        <ele>685.85</ele>
        <time>2016-05-03T14:32:55Z</time>
      </trkpt>
      <trkpt lat="44.77757" lon="4.56169">
        <ele>684.14</ele>
        <time>2016-05-03T14:33:05Z</time>
      </trkpt>
      <trkpt lat="44.77749" lon="4.56174">
        <ele>682.33</ele>
        <time>2016-05-03T14:33:15Z</time>
      </trkpt>
      <trkpt lat="44.7774" lon="4.56178">
        <ele>680.43</ele>
        <time>2016-05-03T14:33:25Z</time>
      </trkpt>
      <trkpt lat="44.7773" lon="4.56185">
        <ele>678.5</ele>
        <time>2016-05-03T14:33:36Z</time>
      </trkpt>
      <trkpt lat="44.7772" lon="4.56191">
        <ele>676.4</ele>
        <time>2016-05-03T14:33:46Z</time>
      </trkpt>
      <trkpt lat="44.77717" lon="4.56207">
        <ele>677.42</ele>
        <time>2016-05-03T14:33:56Z</time>
      </trkpt>
      <trkpt lat="44.77709" lon="4.56217">
        <ele>676.97</ele>
        <time>2016-05-03T14:34:07Z</time>
      </trkpt>
      <trkpt lat="44.77702" lon="4.56214">
        <ele>675.1</ele>
        <time>2016-05-03T14:34:17Z</time>
      </trkpt>
      <trkpt lat="44.77692" lon="4.56213">
        <ele>672.73</ele>
        <time>2016-05-03T14:34:27Z</time>
      </trkpt>
      <trkpt lat="44.77683" lon="4.56218">
        <ele>671.21</ele>
        <time>2016-05-03T14:34:38Z</time>
      </trkpt>
      <trkpt lat="44.77672" lon="4.56225">
        <ele>670.01</ele>
        <time>2016-05-03T14:34:48Z</time>
      </trkpt>
      <trkpt lat="44.77659" lon="4.56228">
        <ele>667.28</ele>
        <time>2016-05-03T14:34:59Z</time>
      </trkpt>
      <trkpt lat="44.7765" lon="4.56234">
        <ele>665.94</ele>
        <time>2016-05-03T14:35:09Z</time>
      </trkpt>
      <trkpt lat="44.77641" lon="4.56238">
        <ele>664.35</ele>
        <time>2016-05-03T14:35:19Z</time>
      </trkpt>
      <trkpt lat="44.77633" lon="4.56242">
        <ele>662.65</ele>
        <time>2016-05-03T14:35:30Z</time>
      </trkpt>
      <trkpt lat="44.77622" lon="4.56244">
        <ele>659.94</ele>
        <time>2016-05-03T14:35:41Z</time>
      </trkpt>
      <trkpt lat="44.77612" lon="4.56244">
        <ele>657.1</ele>
        <time>2016-05-03T14:35:53Z</time>
      </trkpt>
      <trkpt lat="44.77606" lon="4.56253">
        <ele>656.68</ele>
        <time>2016-05-03T14:36:03Z</time>
      </trkpt>
      <trkpt lat="44.77596" lon="4.56265">
        <ele>655.46</ele>
        <time>2016-05-03T14:36:13Z</time>
      </trkpt>
      <trkpt lat="44.77587" lon="4.56278">
        <ele>654.62</ele>
        <time>2016-05-03T14:36:23Z</time>
      </trkpt>
      <trkpt lat="44.77584" lon="4.56291">
        <ele>655.65</ele>
        <time>2016-05-03T14:36:33Z</time>
      </trkpt>
      <trkpt lat="44.77585" lon="4.56309">
        <ele>658.27</ele>
        <time>2016-05-03T14:36:44Z</time>
      </trkpt>
      <trkpt lat="44.77577" lon="4.56323">
        <ele>657.79</ele>
        <time>2016-05-03T14:36:55Z</time>
      </trkpt>
      <trkpt lat="44.77569" lon="4.56327">
        <ele>655.96</ele>
        <time>2016-05-03T14:37:05Z</time>
      </trkpt>
      <trkpt lat="44.77561" lon="4.56337">
        <ele>654.77</ele>
        <time>2016-05-03T14:37:16Z</time>
      </trkpt>
      <trkpt lat="44.77558" lon="4.56351">
        <ele>655.94</ele>
        <time>2016-05-03T14:37:27Z</time>
      </trkpt>
      <trkpt lat="44.77548" lon="4.56361">
        <ele>654.59</ele>
        <time>2016-05-03T14:37:37Z</time>
      </trkpt>
      <trkpt lat="44.77541" lon="4.56371">
        <ele>654.03</ele>
        <time>2016-05-03T14:37:47Z</time>
      </trkpt>
      <trkpt lat="44.77539" lon="4.56379">
        <ele>654.7</ele>
        <time>2016-05-03T14:38:20Z</time>
      </trkpt>
    </trkseg>
  </trk>
</gpx>